<?xml version="1.0" encoding="UTF-8" standalone="no" ?>
<gpx xmlns="http://www.topografix.com/GPX/1/1" xmlns:xsi="http://www.w3.org/2001/XMLSchema-instance" xsi:schemaLocation="http://www.topografix.com/GPX/1/1 http://www.topografix.com/GPX/1/1/gpx.xsd" version="1.1" creator="VisuGPX - https://www.visugpx.com">
  <metadata>
    <name>Nasbinals - Saint Chely d\'Aubrac</name>
    <desc><![CDATA[1er jour du parcours]]></desc>
  </metadata>
  <trk>
    <name><![CDATA[Nasbinals - St Chely d'Aubrac]]></name>
    <cmt><![CDATA[1er jour de randonnée]]></cmt>
    <trkseg>
      <trkpt lat="44.66047" lon="3.03696">
        <ele>1211</ele>
        <time>2014-05-27T07:03:22Z</time>
      </trkpt>
      <trkpt lat="44.66047" lon="3.03696">
        <ele>1256.7</ele>
        <time>2014-05-27T07:11:15Z</time>
      </trkpt>
      <trkpt lat="44.66033" lon="3.03693">
        <ele>1252.7</ele>
        <time>2014-05-27T07:11:23Z</time>
      </trkpt>
      <trkpt lat="44.66023" lon="3.03688">
        <ele>1255.7</ele>
        <time>2014-05-27T07:11:30Z</time>
      </trkpt>
      <trkpt lat="44.6601" lon="3.03675">
        <ele>1260.1</ele>
        <time>2014-05-27T07:11:45Z</time>
      </trkpt>
      <trkpt lat="44.65995" lon="3.03677">
        <ele>1262.8</ele>
        <time>2014-05-27T07:11:59Z</time>
      </trkpt>
      <trkpt lat="44.65979" lon="3.03673">
        <ele>1262.9</ele>
        <time>2014-05-27T07:12:11Z</time>
      </trkpt>
      <trkpt lat="44.65979" lon="3.03672">
        <ele>1262.8</ele>
        <time>2014-05-27T07:12:21Z</time>
      </trkpt>
      <trkpt lat="44.65965" lon="3.03666">
        <ele>1263.8</ele>
        <time>2014-05-27T07:12:50Z</time>
      </trkpt>
      <trkpt lat="44.65955" lon="3.03662">
        <ele>1267.7</ele>
        <time>2014-05-27T07:12:57Z</time>
      </trkpt>
      <trkpt lat="44.65948" lon="3.03653">
        <ele>1270.3</ele>
        <time>2014-05-27T07:13:04Z</time>
      </trkpt>
      <trkpt lat="44.65947" lon="3.03648">
        <ele>1271.5</ele>
        <time>2014-05-27T07:13:17Z</time>
      </trkpt>
      <trkpt lat="44.65941" lon="3.03637">
        <ele>1269.7</ele>
        <time>2014-05-27T07:13:28Z</time>
      </trkpt>
      <trkpt lat="44.65939" lon="3.03622">
        <ele>1267.3</ele>
        <time>2014-05-27T07:13:38Z</time>
      </trkpt>
      <trkpt lat="44.65932" lon="3.03603">
        <ele>1266.2</ele>
        <time>2014-05-27T07:13:50Z</time>
      </trkpt>
      <trkpt lat="44.6591" lon="3.03542">
        <ele>1270.4</ele>
        <time>2014-05-27T07:14:28Z</time>
      </trkpt>
      <trkpt lat="44.65903" lon="3.03526">
        <ele>1271.6</ele>
        <time>2014-05-27T07:14:39Z</time>
      </trkpt>
      <trkpt lat="44.65897" lon="3.03511">
        <ele>1267.3</ele>
        <time>2014-05-27T07:14:50Z</time>
      </trkpt>
      <trkpt lat="44.65889" lon="3.03487">
        <ele>1269</ele>
        <time>2014-05-27T07:15:04Z</time>
      </trkpt>
      <trkpt lat="44.65882" lon="3.03465">
        <ele>1271.5</ele>
        <time>2014-05-27T07:15:17Z</time>
      </trkpt>
      <trkpt lat="44.65877" lon="3.03449">
        <ele>1271.2</ele>
        <time>2014-05-27T07:15:27Z</time>
      </trkpt>
      <trkpt lat="44.65872" lon="3.03433">
        <ele>1267.8</ele>
        <time>2014-05-27T07:15:39Z</time>
      </trkpt>
      <trkpt lat="44.65862" lon="3.03405">
        <ele>1267.2</ele>
        <time>2014-05-27T07:15:57Z</time>
      </trkpt>
      <trkpt lat="44.65857" lon="3.03385">
        <ele>1268.7</ele>
        <time>2014-05-27T07:16:10Z</time>
      </trkpt>
      <trkpt lat="44.6585" lon="3.03361">
        <ele>1266.5</ele>
        <time>2014-05-27T07:16:26Z</time>
      </trkpt>
      <trkpt lat="44.65847" lon="3.03347">
        <ele>1266.4</ele>
        <time>2014-05-27T07:16:35Z</time>
      </trkpt>
      <trkpt lat="44.65841" lon="3.03321">
        <ele>1267.9</ele>
        <time>2014-05-27T07:16:50Z</time>
      </trkpt>
      <trkpt lat="44.65833" lon="3.03299">
        <ele>1268.8</ele>
        <time>2014-05-27T07:17:04Z</time>
      </trkpt>
      <trkpt lat="44.65828" lon="3.03279">
        <ele>1265.4</ele>
        <time>2014-05-27T07:17:19Z</time>
      </trkpt>
      <trkpt lat="44.65823" lon="3.03252">
        <ele>1263.2</ele>
        <time>2014-05-27T07:17:37Z</time>
      </trkpt>
      <trkpt lat="44.65822" lon="3.03218">
        <ele>1263.7</ele>
        <time>2014-05-27T07:17:56Z</time>
      </trkpt>
      <trkpt lat="44.6582" lon="3.03192">
        <ele>1266.9</ele>
        <time>2014-05-27T07:18:10Z</time>
      </trkpt>
      <trkpt lat="44.6582" lon="3.03171">
        <ele>1269.1</ele>
        <time>2014-05-27T07:18:24Z</time>
      </trkpt>
      <trkpt lat="44.65822" lon="3.0315">
        <ele>1267.4</ele>
        <time>2014-05-27T07:18:36Z</time>
      </trkpt>
      <trkpt lat="44.65821" lon="3.03062">
        <ele>1265.4</ele>
        <time>2014-05-27T07:19:23Z</time>
      </trkpt>
      <trkpt lat="44.65819" lon="3.03043">
        <ele>1264.2</ele>
        <time>2014-05-27T07:19:37Z</time>
      </trkpt>
      <trkpt lat="44.65816" lon="3.03023">
        <ele>1262.4</ele>
        <time>2014-05-27T07:19:50Z</time>
      </trkpt>
      <trkpt lat="44.65811" lon="3.03001">
        <ele>1262.7</ele>
        <time>2014-05-27T07:20:07Z</time>
      </trkpt>
      <trkpt lat="44.65808" lon="3.02971">
        <ele>1259.9</ele>
        <time>2014-05-27T07:20:23Z</time>
      </trkpt>
      <trkpt lat="44.65807" lon="3.02965">
        <ele>1261</ele>
        <time>2014-05-27T07:20:27Z</time>
      </trkpt>
      <trkpt lat="44.65805" lon="3.02953">
        <ele>1261.3</ele>
        <time>2014-05-27T07:20:41Z</time>
      </trkpt>
      <trkpt lat="44.65794" lon="3.02928">
        <ele>1259.3</ele>
        <time>2014-05-27T07:20:57Z</time>
      </trkpt>
      <trkpt lat="44.65783" lon="3.02915">
        <ele>1258</ele>
        <time>2014-05-27T07:21:09Z</time>
      </trkpt>
      <trkpt lat="44.6577" lon="3.02897">
        <ele>1255.9</ele>
        <time>2014-05-27T07:21:29Z</time>
      </trkpt>
      <trkpt lat="44.65762" lon="3.02884">
        <ele>1259.6</ele>
        <time>2014-05-27T07:21:41Z</time>
      </trkpt>
      <trkpt lat="44.65751" lon="3.0287">
        <ele>1256.4</ele>
        <time>2014-05-27T07:21:55Z</time>
      </trkpt>
      <trkpt lat="44.65736" lon="3.02847">
        <ele>1261.2</ele>
        <time>2014-05-27T07:22:11Z</time>
      </trkpt>
      <trkpt lat="44.65725" lon="3.02829">
        <ele>1264.1</ele>
        <time>2014-05-27T07:22:25Z</time>
      </trkpt>
      <trkpt lat="44.65721" lon="3.02816">
        <ele>1262.8</ele>
        <time>2014-05-27T07:22:34Z</time>
      </trkpt>
      <trkpt lat="44.65717" lon="3.0278">
        <ele>1268.5</ele>
        <time>2014-05-27T07:22:58Z</time>
      </trkpt>
      <trkpt lat="44.65714" lon="3.02759">
        <ele>1266</ele>
        <time>2014-05-27T07:23:13Z</time>
      </trkpt>
      <trkpt lat="44.65706" lon="3.02733">
        <ele>1266.8</ele>
        <time>2014-05-27T07:23:29Z</time>
      </trkpt>
      <trkpt lat="44.65704" lon="3.02722">
        <ele>1266.2</ele>
        <time>2014-05-27T07:23:41Z</time>
      </trkpt>
      <trkpt lat="44.65702" lon="3.02712">
        <ele>1267.2</ele>
        <time>2014-05-27T07:23:51Z</time>
      </trkpt>
      <trkpt lat="44.65697" lon="3.02662">
        <ele>1263.5</ele>
        <time>2014-05-27T07:24:28Z</time>
      </trkpt>
      <trkpt lat="44.65693" lon="3.02642">
        <ele>1261.4</ele>
        <time>2014-05-27T07:24:46Z</time>
      </trkpt>
      <trkpt lat="44.65674" lon="3.02615">
        <ele>1270</ele>
        <time>2014-05-27T07:25:18Z</time>
      </trkpt>
      <trkpt lat="44.65665" lon="3.02601">
        <ele>1273.6</ele>
        <time>2014-05-27T07:25:30Z</time>
      </trkpt>
      <trkpt lat="44.65658" lon="3.02584">
        <ele>1275.3</ele>
        <time>2014-05-27T07:25:43Z</time>
      </trkpt>
      <trkpt lat="44.65654" lon="3.02567">
        <ele>1275.4</ele>
        <time>2014-05-27T07:26:00Z</time>
      </trkpt>
      <trkpt lat="44.65646" lon="3.0255">
        <ele>1278.3</ele>
        <time>2014-05-27T07:26:16Z</time>
      </trkpt>
      <trkpt lat="44.6564" lon="3.02536">
        <ele>1275.2</ele>
        <time>2014-05-27T07:26:31Z</time>
      </trkpt>
      <trkpt lat="44.65633" lon="3.0253">
        <ele>1273.9</ele>
        <time>2014-05-27T07:26:41Z</time>
      </trkpt>
      <trkpt lat="44.65629" lon="3.02524">
        <ele>1272.1</ele>
        <time>2014-05-27T07:26:48Z</time>
      </trkpt>
      <trkpt lat="44.65625" lon="3.0252">
        <ele>1272.9</ele>
        <time>2014-05-27T07:26:53Z</time>
      </trkpt>
      <trkpt lat="44.6562" lon="3.02509">
        <ele>1272.9</ele>
        <time>2014-05-27T07:27:02Z</time>
      </trkpt>
      <trkpt lat="44.65618" lon="3.02493">
        <ele>1278.2</ele>
        <time>2014-05-27T07:27:16Z</time>
      </trkpt>
      <trkpt lat="44.65614" lon="3.02454">
        <ele>1281.9</ele>
        <time>2014-05-27T07:27:49Z</time>
      </trkpt>
      <trkpt lat="44.65611" lon="3.02429">
        <ele>1283.8</ele>
        <time>2014-05-27T07:28:07Z</time>
      </trkpt>
      <trkpt lat="44.65608" lon="3.02403">
        <ele>1288</ele>
        <time>2014-05-27T07:28:26Z</time>
      </trkpt>
      <trkpt lat="44.65603" lon="3.02385">
        <ele>1288.1</ele>
        <time>2014-05-27T07:28:42Z</time>
      </trkpt>
      <trkpt lat="44.65579" lon="3.02332">
        <ele>1289.9</ele>
        <time>2014-05-27T07:29:35Z</time>
      </trkpt>
      <trkpt lat="44.65579" lon="3.02312">
        <ele>1293.2</ele>
        <time>2014-05-27T07:29:50Z</time>
      </trkpt>
      <trkpt lat="44.65576" lon="3.02295">
        <ele>1296.4</ele>
        <time>2014-05-27T07:30:06Z</time>
      </trkpt>
      <trkpt lat="44.65575" lon="3.02279">
        <ele>1291.3</ele>
        <time>2014-05-27T07:30:16Z</time>
      </trkpt>
      <trkpt lat="44.65576" lon="3.02256">
        <ele>1291.1</ele>
        <time>2014-05-27T07:30:31Z</time>
      </trkpt>
      <trkpt lat="44.65569" lon="3.02225">
        <ele>1292</ele>
        <time>2014-05-27T07:30:48Z</time>
      </trkpt>
      <trkpt lat="44.65573" lon="3.022">
        <ele>1296.5</ele>
        <time>2014-05-27T07:31:04Z</time>
      </trkpt>
      <trkpt lat="44.65571" lon="3.02192">
        <ele>1297.7</ele>
        <time>2014-05-27T07:31:09Z</time>
      </trkpt>
      <trkpt lat="44.65572" lon="3.02173">
        <ele>1296.5</ele>
        <time>2014-05-27T07:31:20Z</time>
      </trkpt>
      <trkpt lat="44.65572" lon="3.02173">
        <ele>1296.5</ele>
        <time>2014-05-27T07:31:25Z</time>
      </trkpt>
      <trkpt lat="44.65572" lon="3.02173">
        <ele>1296.5</ele>
        <time>2014-05-27T07:31:26Z</time>
      </trkpt>
      <trkpt lat="44.65566" lon="3.02155">
        <ele>1296.9</ele>
        <time>2014-05-27T07:31:32Z</time>
      </trkpt>
      <trkpt lat="44.65566" lon="3.02155">
        <ele>1296.9</ele>
        <time>2014-05-27T07:31:38Z</time>
      </trkpt>
      <trkpt lat="44.65566" lon="3.02155">
        <ele>1296.9</ele>
        <time>2014-05-27T07:31:39Z</time>
      </trkpt>
      <trkpt lat="44.65567" lon="3.02127">
        <ele>1295.8</ele>
        <time>2014-05-27T07:31:49Z</time>
      </trkpt>
      <trkpt lat="44.65576" lon="3.02116">
        <ele>1294.6</ele>
        <time>2014-05-27T07:31:56Z</time>
      </trkpt>
      <trkpt lat="44.65576" lon="3.02099">
        <ele>1288.3</ele>
        <time>2014-05-27T07:32:07Z</time>
      </trkpt>
      <trkpt lat="44.65577" lon="3.02075">
        <ele>1289.6</ele>
        <time>2014-05-27T07:32:24Z</time>
      </trkpt>
      <trkpt lat="44.65592" lon="3.02049">
        <ele>1290.8</ele>
        <time>2014-05-27T07:32:39Z</time>
      </trkpt>
      <trkpt lat="44.65594" lon="3.02038">
        <ele>1290.5</ele>
        <time>2014-05-27T07:32:48Z</time>
      </trkpt>
      <trkpt lat="44.6559" lon="3.02013">
        <ele>1284.8</ele>
        <time>2014-05-27T07:33:06Z</time>
      </trkpt>
      <trkpt lat="44.65584" lon="3.01987">
        <ele>1284.6</ele>
        <time>2014-05-27T07:33:25Z</time>
      </trkpt>
      <trkpt lat="44.65581" lon="3.01954">
        <ele>1285.7</ele>
        <time>2014-05-27T07:33:43Z</time>
      </trkpt>
      <trkpt lat="44.65557" lon="3.01872">
        <ele>1284.8</ele>
        <time>2014-05-27T07:34:34Z</time>
      </trkpt>
      <trkpt lat="44.6555" lon="3.01849">
        <ele>1283</ele>
        <time>2014-05-27T07:34:50Z</time>
      </trkpt>
      <trkpt lat="44.65549" lon="3.01833">
        <ele>1284.2</ele>
        <time>2014-05-27T07:35:02Z</time>
      </trkpt>
      <trkpt lat="44.65548" lon="3.01805">
        <ele>1285</ele>
        <time>2014-05-27T07:35:23Z</time>
      </trkpt>
      <trkpt lat="44.65544" lon="3.01784">
        <ele>1283.4</ele>
        <time>2014-05-27T07:35:35Z</time>
      </trkpt>
      <trkpt lat="44.65539" lon="3.01772">
        <ele>1278</ele>
        <time>2014-05-27T07:35:43Z</time>
      </trkpt>
      <trkpt lat="44.65535" lon="3.01748">
        <ele>1288</ele>
        <time>2014-05-27T07:35:55Z</time>
      </trkpt>
      <trkpt lat="44.65536" lon="3.01727">
        <ele>1290.8</ele>
        <time>2014-05-27T07:36:08Z</time>
      </trkpt>
      <trkpt lat="44.65536" lon="3.01708">
        <ele>1286.6</ele>
        <time>2014-05-27T07:36:22Z</time>
      </trkpt>
      <trkpt lat="44.65537" lon="3.01689">
        <ele>1285.8</ele>
        <time>2014-05-27T07:36:39Z</time>
      </trkpt>
      <trkpt lat="44.65536" lon="3.01661">
        <ele>1280.9</ele>
        <time>2014-05-27T07:36:54Z</time>
      </trkpt>
      <trkpt lat="44.6553" lon="3.01641">
        <ele>1277.4</ele>
        <time>2014-05-27T07:37:08Z</time>
      </trkpt>
      <trkpt lat="44.65519" lon="3.01624">
        <ele>1272.3</ele>
        <time>2014-05-27T07:37:23Z</time>
      </trkpt>
      <trkpt lat="44.65506" lon="3.01606">
        <ele>1270.7</ele>
        <time>2014-05-27T07:37:38Z</time>
      </trkpt>
      <trkpt lat="44.65496" lon="3.01587">
        <ele>1272.1</ele>
        <time>2014-05-27T07:37:53Z</time>
      </trkpt>
      <trkpt lat="44.65489" lon="3.01576">
        <ele>1276.4</ele>
        <time>2014-05-27T07:38:01Z</time>
      </trkpt>
      <trkpt lat="44.65487" lon="3.01557">
        <ele>1280.8</ele>
        <time>2014-05-27T07:38:14Z</time>
      </trkpt>
      <trkpt lat="44.65478" lon="3.01548">
        <ele>1282.5</ele>
        <time>2014-05-27T07:38:20Z</time>
      </trkpt>
      <trkpt lat="44.65478" lon="3.01535">
        <ele>1277.9</ele>
        <time>2014-05-27T07:38:28Z</time>
      </trkpt>
      <trkpt lat="44.65472" lon="3.01513">
        <ele>1276.4</ele>
        <time>2014-05-27T07:38:41Z</time>
      </trkpt>
      <trkpt lat="44.65467" lon="3.01496">
        <ele>1273.4</ele>
        <time>2014-05-27T07:38:52Z</time>
      </trkpt>
      <trkpt lat="44.65456" lon="3.01479">
        <ele>1272.7</ele>
        <time>2014-05-27T07:39:04Z</time>
      </trkpt>
      <trkpt lat="44.65457" lon="3.01471">
        <ele>1273.5</ele>
        <time>2014-05-27T07:39:08Z</time>
      </trkpt>
      <trkpt lat="44.65458" lon="3.01461">
        <ele>1270.2</ele>
        <time>2014-05-27T07:39:16Z</time>
      </trkpt>
      <trkpt lat="44.65465" lon="3.01447">
        <ele>1269.7</ele>
        <time>2014-05-27T07:39:25Z</time>
      </trkpt>
      <trkpt lat="44.65469" lon="3.01432">
        <ele>1270.6</ele>
        <time>2014-05-27T07:39:35Z</time>
      </trkpt>
      <trkpt lat="44.65474" lon="3.01418">
        <ele>1269.7</ele>
        <time>2014-05-27T07:39:43Z</time>
      </trkpt>
      <trkpt lat="44.65479" lon="3.01407">
        <ele>1270.5</ele>
        <time>2014-05-27T07:39:53Z</time>
      </trkpt>
      <trkpt lat="44.65478" lon="3.01401">
        <ele>1267.1</ele>
        <time>2014-05-27T07:40:06Z</time>
      </trkpt>
      <trkpt lat="44.65483" lon="3.01374">
        <ele>1266.1</ele>
        <time>2014-05-27T07:40:26Z</time>
      </trkpt>
      <trkpt lat="44.65472" lon="3.01381">
        <ele>1264.9</ele>
        <time>2014-05-27T07:40:38Z</time>
      </trkpt>
      <trkpt lat="44.65469" lon="3.01381">
        <ele>1265.6</ele>
        <time>2014-05-27T07:40:47Z</time>
      </trkpt>
      <trkpt lat="44.65477" lon="3.01365">
        <ele>1263.6</ele>
        <time>2014-05-27T07:41:34Z</time>
      </trkpt>
      <trkpt lat="44.65477" lon="3.01365">
        <ele>1263.6</ele>
        <time>2014-05-27T07:41:41Z</time>
      </trkpt>
      <trkpt lat="44.65478" lon="3.01347">
        <ele>1265.1</ele>
        <time>2014-05-27T07:41:47Z</time>
      </trkpt>
      <trkpt lat="44.65478" lon="3.01347">
        <ele>1265.1</ele>
        <time>2014-05-27T07:41:53Z</time>
      </trkpt>
      <trkpt lat="44.65478" lon="3.01347">
        <ele>1265.1</ele>
        <time>2014-05-27T07:41:54Z</time>
      </trkpt>
      <trkpt lat="44.65468" lon="3.01329">
        <ele>1262.5</ele>
        <time>2014-05-27T07:42:11Z</time>
      </trkpt>
      <trkpt lat="44.65467" lon="3.01313">
        <ele>1266.2</ele>
        <time>2014-05-27T07:42:25Z</time>
      </trkpt>
      <trkpt lat="44.6546" lon="3.01295">
        <ele>1267.7</ele>
        <time>2014-05-27T07:42:39Z</time>
      </trkpt>
      <trkpt lat="44.65452" lon="3.0127">
        <ele>1271</ele>
        <time>2014-05-27T07:42:55Z</time>
      </trkpt>
      <trkpt lat="44.65448" lon="3.01252">
        <ele>1271.4</ele>
        <time>2014-05-27T07:43:08Z</time>
      </trkpt>
      <trkpt lat="44.65443" lon="3.01239">
        <ele>1275.8</ele>
        <time>2014-05-27T07:43:16Z</time>
      </trkpt>
      <trkpt lat="44.65438" lon="3.01211">
        <ele>1280.4</ele>
        <time>2014-05-27T07:43:37Z</time>
      </trkpt>
      <trkpt lat="44.65431" lon="3.01191">
        <ele>1283.7</ele>
        <time>2014-05-27T07:43:51Z</time>
      </trkpt>
      <trkpt lat="44.65417" lon="3.01167">
        <ele>1286.3</ele>
        <time>2014-05-27T07:44:13Z</time>
      </trkpt>
      <trkpt lat="44.654" lon="3.01137">
        <ele>1287.3</ele>
        <time>2014-05-27T07:44:36Z</time>
      </trkpt>
      <trkpt lat="44.65391" lon="3.01121">
        <ele>1287.9</ele>
        <time>2014-05-27T07:44:48Z</time>
      </trkpt>
      <trkpt lat="44.65379" lon="3.01102">
        <ele>1290.2</ele>
        <time>2014-05-27T07:45:01Z</time>
      </trkpt>
      <trkpt lat="44.6538" lon="3.01084">
        <ele>1289.7</ele>
        <time>2014-05-27T07:45:12Z</time>
      </trkpt>
      <trkpt lat="44.65377" lon="3.01065">
        <ele>1290.4</ele>
        <time>2014-05-27T07:45:24Z</time>
      </trkpt>
      <trkpt lat="44.65374" lon="3.01051">
        <ele>1289.5</ele>
        <time>2014-05-27T07:45:37Z</time>
      </trkpt>
      <trkpt lat="44.65374" lon="3.01051">
        <ele>1289.5</ele>
        <time>2014-05-27T07:45:45Z</time>
      </trkpt>
      <trkpt lat="44.65374" lon="3.01051">
        <ele>1289.5</ele>
        <time>2014-05-27T07:45:46Z</time>
      </trkpt>
      <trkpt lat="44.65382" lon="3.01039">
        <ele>1291.3</ele>
        <time>2014-05-27T07:45:58Z</time>
      </trkpt>
      <trkpt lat="44.65384" lon="3.01018">
        <ele>1293.4</ele>
        <time>2014-05-27T07:46:12Z</time>
      </trkpt>
      <trkpt lat="44.65384" lon="3.01002">
        <ele>1296.1</ele>
        <time>2014-05-27T07:46:25Z</time>
      </trkpt>
      <trkpt lat="44.65385" lon="3.0099">
        <ele>1297.3</ele>
        <time>2014-05-27T07:46:39Z</time>
      </trkpt>
      <trkpt lat="44.65386" lon="3.00988">
        <ele>1297.1</ele>
        <time>2014-05-27T07:46:41Z</time>
      </trkpt>
      <trkpt lat="44.65389" lon="3.00975">
        <ele>1299.9</ele>
        <time>2014-05-27T07:46:56Z</time>
      </trkpt>
      <trkpt lat="44.65391" lon="3.00965">
        <ele>1300.1</ele>
        <time>2014-05-27T07:47:04Z</time>
      </trkpt>
      <trkpt lat="44.65393" lon="3.00947">
        <ele>1301.9</ele>
        <time>2014-05-27T07:47:20Z</time>
      </trkpt>
      <trkpt lat="44.65397" lon="3.00928">
        <ele>1304.9</ele>
        <time>2014-05-27T07:47:39Z</time>
      </trkpt>
      <trkpt lat="44.65399" lon="3.00887">
        <ele>1307.7</ele>
        <time>2014-05-27T07:48:18Z</time>
      </trkpt>
      <trkpt lat="44.65408" lon="3.00851">
        <ele>1314.4</ele>
        <time>2014-05-27T07:49:02Z</time>
      </trkpt>
      <trkpt lat="44.65402" lon="3.00811">
        <ele>1317.3</ele>
        <time>2014-05-27T07:49:45Z</time>
      </trkpt>
      <trkpt lat="44.654" lon="3.00796">
        <ele>1317.5</ele>
        <time>2014-05-27T07:50:04Z</time>
      </trkpt>
      <trkpt lat="44.65397" lon="3.00758">
        <ele>1322</ele>
        <time>2014-05-27T07:50:48Z</time>
      </trkpt>
      <trkpt lat="44.65389" lon="3.00716">
        <ele>1327</ele>
        <time>2014-05-27T07:51:35Z</time>
      </trkpt>
      <trkpt lat="44.65386" lon="3.00711">
        <ele>1326.6</ele>
        <time>2014-05-27T07:51:41Z</time>
      </trkpt>
      <trkpt lat="44.65383" lon="3.00706">
        <ele>1326.4</ele>
        <time>2014-05-27T07:51:50Z</time>
      </trkpt>
      <trkpt lat="44.65374" lon="3.00688">
        <ele>1327.7</ele>
        <time>2014-05-27T07:53:50Z</time>
      </trkpt>
      <trkpt lat="44.65362" lon="3.00659">
        <ele>1328.7</ele>
        <time>2014-05-27T07:54:10Z</time>
      </trkpt>
      <trkpt lat="44.65349" lon="3.00639">
        <ele>1327.2</ele>
        <time>2014-05-27T07:54:26Z</time>
      </trkpt>
      <trkpt lat="44.65338" lon="3.00617">
        <ele>1326.9</ele>
        <time>2014-05-27T07:54:39Z</time>
      </trkpt>
      <trkpt lat="44.65328" lon="3.00606">
        <ele>1326.7</ele>
        <time>2014-05-27T07:54:51Z</time>
      </trkpt>
      <trkpt lat="44.65313" lon="3.006">
        <ele>1324.2</ele>
        <time>2014-05-27T07:55:09Z</time>
      </trkpt>
      <trkpt lat="44.65305" lon="3.00596">
        <ele>1324.3</ele>
        <time>2014-05-27T07:55:18Z</time>
      </trkpt>
      <trkpt lat="44.65295" lon="3.0059">
        <ele>1323.3</ele>
        <time>2014-05-27T07:55:28Z</time>
      </trkpt>
      <trkpt lat="44.65286" lon="3.00586">
        <ele>1323</ele>
        <time>2014-05-27T07:55:37Z</time>
      </trkpt>
      <trkpt lat="44.65267" lon="3.00583">
        <ele>1323.5</ele>
        <time>2014-05-27T07:55:54Z</time>
      </trkpt>
      <trkpt lat="44.65249" lon="3.00584">
        <ele>1324</ele>
        <time>2014-05-27T07:56:10Z</time>
      </trkpt>
      <trkpt lat="44.65233" lon="3.00586">
        <ele>1324.9</ele>
        <time>2014-05-27T07:56:25Z</time>
      </trkpt>
      <trkpt lat="44.65219" lon="3.00594">
        <ele>1325.9</ele>
        <time>2014-05-27T07:56:39Z</time>
      </trkpt>
      <trkpt lat="44.65216" lon="3.00596">
        <ele>1326.7</ele>
        <time>2014-05-27T07:56:47Z</time>
      </trkpt>
      <trkpt lat="44.65193" lon="3.00592">
        <ele>1326</ele>
        <time>2014-05-27T07:57:30Z</time>
      </trkpt>
      <trkpt lat="44.65175" lon="3.00582">
        <ele>1327.2</ele>
        <time>2014-05-27T07:57:49Z</time>
      </trkpt>
      <trkpt lat="44.65159" lon="3.00575">
        <ele>1331</ele>
        <time>2014-05-27T07:58:06Z</time>
      </trkpt>
      <trkpt lat="44.65145" lon="3.00572">
        <ele>1332.9</ele>
        <time>2014-05-27T07:58:24Z</time>
      </trkpt>
      <trkpt lat="44.65126" lon="3.00574">
        <ele>1333</ele>
        <time>2014-05-27T07:58:45Z</time>
      </trkpt>
      <trkpt lat="44.65123" lon="3.00575">
        <ele>1333.3</ele>
        <time>2014-05-27T07:58:48Z</time>
      </trkpt>
      <trkpt lat="44.65114" lon="3.00577">
        <ele>1334.4</ele>
        <time>2014-05-27T07:59:02Z</time>
      </trkpt>
      <trkpt lat="44.65099" lon="3.00577">
        <ele>1334</ele>
        <time>2014-05-27T07:59:17Z</time>
      </trkpt>
      <trkpt lat="44.65081" lon="3.00578">
        <ele>1334.4</ele>
        <time>2014-05-27T07:59:34Z</time>
      </trkpt>
      <trkpt lat="44.65068" lon="3.00578">
        <ele>1335.6</ele>
        <time>2014-05-27T07:59:49Z</time>
      </trkpt>
      <trkpt lat="44.65054" lon="3.00579">
        <ele>1336.7</ele>
        <time>2014-05-27T08:00:05Z</time>
      </trkpt>
      <trkpt lat="44.65047" lon="3.00579">
        <ele>1337.3</ele>
        <time>2014-05-27T08:00:12Z</time>
      </trkpt>
      <trkpt lat="44.65036" lon="3.0058">
        <ele>1336.6</ele>
        <time>2014-05-27T08:00:25Z</time>
      </trkpt>
      <trkpt lat="44.65032" lon="3.00576">
        <ele>1337.3</ele>
        <time>2014-05-27T08:00:33Z</time>
      </trkpt>
      <trkpt lat="44.65003" lon="3.00569">
        <ele>1340.5</ele>
        <time>2014-05-27T08:01:08Z</time>
      </trkpt>
      <trkpt lat="44.64989" lon="3.00557">
        <ele>1341.8</ele>
        <time>2014-05-27T08:01:22Z</time>
      </trkpt>
      <trkpt lat="44.64979" lon="3.00539">
        <ele>1344.3</ele>
        <time>2014-05-27T08:01:37Z</time>
      </trkpt>
      <trkpt lat="44.64968" lon="3.00522">
        <ele>1346.7</ele>
        <time>2014-05-27T08:01:49Z</time>
      </trkpt>
      <trkpt lat="44.64959" lon="3.0051">
        <ele>1345.9</ele>
        <time>2014-05-27T08:02:03Z</time>
      </trkpt>
      <trkpt lat="44.64949" lon="3.0049">
        <ele>1348.4</ele>
        <time>2014-05-27T08:02:17Z</time>
      </trkpt>
      <trkpt lat="44.6494" lon="3.00461">
        <ele>1351.1</ele>
        <time>2014-05-27T08:02:37Z</time>
      </trkpt>
      <trkpt lat="44.64933" lon="3.00437">
        <ele>1350.2</ele>
        <time>2014-05-27T08:02:54Z</time>
      </trkpt>
      <trkpt lat="44.64926" lon="3.00411">
        <ele>1349.1</ele>
        <time>2014-05-27T08:03:13Z</time>
      </trkpt>
      <trkpt lat="44.64921" lon="3.00392">
        <ele>1349.7</ele>
        <time>2014-05-27T08:03:27Z</time>
      </trkpt>
      <trkpt lat="44.64916" lon="3.00368">
        <ele>1349.9</ele>
        <time>2014-05-27T08:03:44Z</time>
      </trkpt>
      <trkpt lat="44.64911" lon="3.00342">
        <ele>1350.5</ele>
        <time>2014-05-27T08:04:01Z</time>
      </trkpt>
      <trkpt lat="44.64909" lon="3.00329">
        <ele>1350.4</ele>
        <time>2014-05-27T08:04:11Z</time>
      </trkpt>
      <trkpt lat="44.64904" lon="3.0031">
        <ele>1351.6</ele>
        <time>2014-05-27T08:04:25Z</time>
      </trkpt>
      <trkpt lat="44.649" lon="3.00298">
        <ele>1350.6</ele>
        <time>2014-05-27T08:04:35Z</time>
      </trkpt>
      <trkpt lat="44.64897" lon="3.00282">
        <ele>1349.4</ele>
        <time>2014-05-27T08:04:47Z</time>
      </trkpt>
      <trkpt lat="44.64897" lon="3.00282">
        <ele>1349.4</ele>
        <time>2014-05-27T08:04:54Z</time>
      </trkpt>
      <trkpt lat="44.64897" lon="3.00282">
        <ele>1349.4</ele>
        <time>2014-05-27T08:04:55Z</time>
      </trkpt>
      <trkpt lat="44.64887" lon="3.00263">
        <ele>1349.3</ele>
        <time>2014-05-27T08:05:12Z</time>
      </trkpt>
      <trkpt lat="44.64885" lon="3.00255">
        <ele>1349.8</ele>
        <time>2014-05-27T08:05:16Z</time>
      </trkpt>
      <trkpt lat="44.64884" lon="3.00251">
        <ele>1351.4</ele>
        <time>2014-05-27T08:05:31Z</time>
      </trkpt>
      <trkpt lat="44.64881" lon="3.00234">
        <ele>1351.8</ele>
        <time>2014-05-27T08:05:44Z</time>
      </trkpt>
      <trkpt lat="44.64881" lon="3.00234">
        <ele>1351.8</ele>
        <time>2014-05-27T08:05:49Z</time>
      </trkpt>
      <trkpt lat="44.64881" lon="3.00234">
        <ele>1351.8</ele>
        <time>2014-05-27T08:05:50Z</time>
      </trkpt>
      <trkpt lat="44.64879" lon="3.00216">
        <ele>1351.5</ele>
        <time>2014-05-27T08:06:00Z</time>
      </trkpt>
      <trkpt lat="44.64877" lon="3.00198">
        <ele>1351.5</ele>
        <time>2014-05-27T08:06:15Z</time>
      </trkpt>
      <trkpt lat="44.64873" lon="3.00185">
        <ele>1351.4</ele>
        <time>2014-05-27T08:06:25Z</time>
      </trkpt>
      <trkpt lat="44.64871" lon="3.00164">
        <ele>1350.2</ele>
        <time>2014-05-27T08:06:42Z</time>
      </trkpt>
      <trkpt lat="44.6487" lon="3.00151">
        <ele>1350.9</ele>
        <time>2014-05-27T08:06:52Z</time>
      </trkpt>
      <trkpt lat="44.64867" lon="3.00126">
        <ele>1350.3</ele>
        <time>2014-05-27T08:07:11Z</time>
      </trkpt>
      <trkpt lat="44.64864" lon="3.00103">
        <ele>1349.4</ele>
        <time>2014-05-27T08:07:27Z</time>
      </trkpt>
      <trkpt lat="44.64861" lon="3.00086">
        <ele>1347.7</ele>
        <time>2014-05-27T08:07:44Z</time>
      </trkpt>
      <trkpt lat="44.64857" lon="3.00068">
        <ele>1345.3</ele>
        <time>2014-05-27T08:07:56Z</time>
      </trkpt>
      <trkpt lat="44.64851" lon="3.00046">
        <ele>1345.7</ele>
        <time>2014-05-27T08:08:12Z</time>
      </trkpt>
      <trkpt lat="44.64847" lon="3.00022">
        <ele>1345.9</ele>
        <time>2014-05-27T08:08:30Z</time>
      </trkpt>
      <trkpt lat="44.64841" lon="2.99994">
        <ele>1346.3</ele>
        <time>2014-05-27T08:08:50Z</time>
      </trkpt>
      <trkpt lat="44.64839" lon="2.99968">
        <ele>1346.8</ele>
        <time>2014-05-27T08:09:08Z</time>
      </trkpt>
      <trkpt lat="44.64844" lon="2.99949">
        <ele>1347.1</ele>
        <time>2014-05-27T08:09:22Z</time>
      </trkpt>
      <trkpt lat="44.64846" lon="2.9993">
        <ele>1348.2</ele>
        <time>2014-05-27T08:09:36Z</time>
      </trkpt>
      <trkpt lat="44.64849" lon="2.99901">
        <ele>1346.1</ele>
        <time>2014-05-27T08:09:55Z</time>
      </trkpt>
      <trkpt lat="44.64852" lon="2.99887">
        <ele>1347.3</ele>
        <time>2014-05-27T08:10:09Z</time>
      </trkpt>
      <trkpt lat="44.6485" lon="2.99865">
        <ele>1352.7</ele>
        <time>2014-05-27T08:10:23Z</time>
      </trkpt>
      <trkpt lat="44.64846" lon="2.99858">
        <ele>1351.5</ele>
        <time>2014-05-27T08:10:31Z</time>
      </trkpt>
      <trkpt lat="44.64835" lon="2.99825">
        <ele>1353</ele>
        <time>2014-05-27T08:11:03Z</time>
      </trkpt>
      <trkpt lat="44.64831" lon="2.99811">
        <ele>1353.5</ele>
        <time>2014-05-27T08:11:10Z</time>
      </trkpt>
      <trkpt lat="44.64831" lon="2.99811">
        <ele>1353.5</ele>
        <time>2014-05-27T08:11:18Z</time>
      </trkpt>
      <trkpt lat="44.64831" lon="2.99811">
        <ele>1353.5</ele>
        <time>2014-05-27T08:11:19Z</time>
      </trkpt>
      <trkpt lat="44.64828" lon="2.9979">
        <ele>1351.6</ele>
        <time>2014-05-27T08:11:31Z</time>
      </trkpt>
      <trkpt lat="44.64833" lon="2.99763">
        <ele>1353.6</ele>
        <time>2014-05-27T08:11:52Z</time>
      </trkpt>
      <trkpt lat="44.64831" lon="2.99739">
        <ele>1353.2</ele>
        <time>2014-05-27T08:12:10Z</time>
      </trkpt>
      <trkpt lat="44.64829" lon="2.99714">
        <ele>1349.6</ele>
        <time>2014-05-27T08:12:29Z</time>
      </trkpt>
      <trkpt lat="44.64831" lon="2.99695">
        <ele>1349.4</ele>
        <time>2014-05-27T08:12:43Z</time>
      </trkpt>
      <trkpt lat="44.64834" lon="2.99673">
        <ele>1351.7</ele>
        <time>2014-05-27T08:12:59Z</time>
      </trkpt>
      <trkpt lat="44.64838" lon="2.99656">
        <ele>1352.3</ele>
        <time>2014-05-27T08:13:11Z</time>
      </trkpt>
      <trkpt lat="44.64841" lon="2.99631">
        <ele>1354.5</ele>
        <time>2014-05-27T08:13:28Z</time>
      </trkpt>
      <trkpt lat="44.64843" lon="2.99604">
        <ele>1353.2</ele>
        <time>2014-05-27T08:13:48Z</time>
      </trkpt>
      <trkpt lat="44.64838" lon="2.99584">
        <ele>1351.7</ele>
        <time>2014-05-27T08:14:03Z</time>
      </trkpt>
      <trkpt lat="44.64845" lon="2.99563">
        <ele>1354.8</ele>
        <time>2014-05-27T08:14:16Z</time>
      </trkpt>
      <trkpt lat="44.64844" lon="2.9954">
        <ele>1356.3</ele>
        <time>2014-05-27T08:14:32Z</time>
      </trkpt>
      <trkpt lat="44.64844" lon="2.99517">
        <ele>1356.2</ele>
        <time>2014-05-27T08:14:48Z</time>
      </trkpt>
      <trkpt lat="44.6485" lon="2.99491">
        <ele>1359.5</ele>
        <time>2014-05-27T08:15:04Z</time>
      </trkpt>
      <trkpt lat="44.6485" lon="2.99491">
        <ele>1359.5</ele>
        <time>2014-05-27T08:15:11Z</time>
      </trkpt>
      <trkpt lat="44.64843" lon="2.99475">
        <ele>1357.5</ele>
        <time>2014-05-27T08:15:16Z</time>
      </trkpt>
      <trkpt lat="44.64839" lon="2.99451">
        <ele>1357.9</ele>
        <time>2014-05-27T08:15:33Z</time>
      </trkpt>
      <trkpt lat="44.64839" lon="2.99435">
        <ele>1357.3</ele>
        <time>2014-05-27T08:15:47Z</time>
      </trkpt>
      <trkpt lat="44.64839" lon="2.99408">
        <ele>1360.2</ele>
        <time>2014-05-27T08:16:08Z</time>
      </trkpt>
      <trkpt lat="44.64833" lon="2.99387">
        <ele>1359.9</ele>
        <time>2014-05-27T08:16:23Z</time>
      </trkpt>
      <trkpt lat="44.64833" lon="2.99359">
        <ele>1361.2</ele>
        <time>2014-05-27T08:16:45Z</time>
      </trkpt>
      <trkpt lat="44.64837" lon="2.99313">
        <ele>1366.6</ele>
        <time>2014-05-27T08:17:31Z</time>
      </trkpt>
      <trkpt lat="44.64826" lon="2.99294">
        <ele>1362.9</ele>
        <time>2014-05-27T08:17:46Z</time>
      </trkpt>
      <trkpt lat="44.64815" lon="2.99273">
        <ele>1358.2</ele>
        <time>2014-05-27T08:18:06Z</time>
      </trkpt>
      <trkpt lat="44.64817" lon="2.99256">
        <ele>1358.4</ele>
        <time>2014-05-27T08:18:18Z</time>
      </trkpt>
      <trkpt lat="44.64819" lon="2.99242">
        <ele>1358.4</ele>
        <time>2014-05-27T08:18:32Z</time>
      </trkpt>
      <trkpt lat="44.64823" lon="2.99225">
        <ele>1358.1</ele>
        <time>2014-05-27T08:18:49Z</time>
      </trkpt>
      <trkpt lat="44.64823" lon="2.99225">
        <ele>1358.1</ele>
        <time>2014-05-27T08:18:56Z</time>
      </trkpt>
      <trkpt lat="44.64823" lon="2.99225">
        <ele>1358.1</ele>
        <time>2014-05-27T08:18:57Z</time>
      </trkpt>
      <trkpt lat="44.64814" lon="2.99187">
        <ele>1365</ele>
        <time>2014-05-27T08:19:34Z</time>
      </trkpt>
      <trkpt lat="44.64806" lon="2.99171">
        <ele>1359.3</ele>
        <time>2014-05-27T08:19:49Z</time>
      </trkpt>
      <trkpt lat="44.64802" lon="2.99151">
        <ele>1363</ele>
        <time>2014-05-27T08:20:05Z</time>
      </trkpt>
      <trkpt lat="44.64797" lon="2.9913">
        <ele>1365.3</ele>
        <time>2014-05-27T08:20:20Z</time>
      </trkpt>
      <trkpt lat="44.64783" lon="2.99105">
        <ele>1365</ele>
        <time>2014-05-27T08:20:39Z</time>
      </trkpt>
      <trkpt lat="44.64775" lon="2.99088">
        <ele>1362.8</ele>
        <time>2014-05-27T08:20:54Z</time>
      </trkpt>
      <trkpt lat="44.64768" lon="2.99071">
        <ele>1365.9</ele>
        <time>2014-05-27T08:21:06Z</time>
      </trkpt>
      <trkpt lat="44.64763" lon="2.99045">
        <ele>1367</ele>
        <time>2014-05-27T08:21:26Z</time>
      </trkpt>
      <trkpt lat="44.64743" lon="2.99022">
        <ele>1369.2</ele>
        <time>2014-05-27T08:21:44Z</time>
      </trkpt>
      <trkpt lat="44.64732" lon="2.99012">
        <ele>1370.2</ele>
        <time>2014-05-27T08:21:54Z</time>
      </trkpt>
      <trkpt lat="44.64727" lon="2.99012">
        <ele>1369.4</ele>
        <time>2014-05-27T08:22:06Z</time>
      </trkpt>
      <trkpt lat="44.64709" lon="2.98984">
        <ele>1369.5</ele>
        <time>2014-05-27T08:22:38Z</time>
      </trkpt>
      <trkpt lat="44.64702" lon="2.9898">
        <ele>1370.5</ele>
        <time>2014-05-27T08:22:45Z</time>
      </trkpt>
      <trkpt lat="44.64688" lon="2.98966">
        <ele>1369.9</ele>
        <time>2014-05-27T08:23:01Z</time>
      </trkpt>
      <trkpt lat="44.64679" lon="2.98961">
        <ele>1370.1</ele>
        <time>2014-05-27T08:23:11Z</time>
      </trkpt>
      <trkpt lat="44.64659" lon="2.98955">
        <ele>1368.8</ele>
        <time>2014-05-27T08:23:34Z</time>
      </trkpt>
      <trkpt lat="44.64644" lon="2.98945">
        <ele>1370</ele>
        <time>2014-05-27T08:23:51Z</time>
      </trkpt>
      <trkpt lat="44.64633" lon="2.98933">
        <ele>1370.2</ele>
        <time>2014-05-27T08:24:06Z</time>
      </trkpt>
      <trkpt lat="44.6462" lon="2.9892">
        <ele>1369.7</ele>
        <time>2014-05-27T08:24:23Z</time>
      </trkpt>
      <trkpt lat="44.64615" lon="2.98922">
        <ele>1368.2</ele>
        <time>2014-05-27T08:24:29Z</time>
      </trkpt>
      <trkpt lat="44.64608" lon="2.98917">
        <ele>1367.7</ele>
        <time>2014-05-27T08:24:44Z</time>
      </trkpt>
      <trkpt lat="44.64594" lon="2.98913">
        <ele>1367.8</ele>
        <time>2014-05-27T08:24:59Z</time>
      </trkpt>
      <trkpt lat="44.64568" lon="2.98939">
        <ele>1359.2</ele>
        <time>2014-05-27T08:25:19Z</time>
      </trkpt>
      <trkpt lat="44.64562" lon="2.98933">
        <ele>1354.1</ele>
        <time>2014-05-27T08:25:24Z</time>
      </trkpt>
      <trkpt lat="44.64559" lon="2.98933">
        <ele>1352.3</ele>
        <time>2014-05-27T08:25:30Z</time>
      </trkpt>
      <trkpt lat="44.64554" lon="2.98892">
        <ele>1362.3</ele>
        <time>2014-05-27T08:26:28Z</time>
      </trkpt>
      <trkpt lat="44.64532" lon="2.98869">
        <ele>1361.8</ele>
        <time>2014-05-27T08:27:05Z</time>
      </trkpt>
      <trkpt lat="44.64521" lon="2.98862">
        <ele>1364.9</ele>
        <time>2014-05-27T08:27:17Z</time>
      </trkpt>
      <trkpt lat="44.64512" lon="2.98822">
        <ele>1367.2</ele>
        <time>2014-05-27T08:28:04Z</time>
      </trkpt>
      <trkpt lat="44.64491" lon="2.98797">
        <ele>1370.8</ele>
        <time>2014-05-27T08:28:54Z</time>
      </trkpt>
      <trkpt lat="44.64477" lon="2.98787">
        <ele>1371.1</ele>
        <time>2014-05-27T08:29:11Z</time>
      </trkpt>
      <trkpt lat="44.64462" lon="2.98762">
        <ele>1369.3</ele>
        <time>2014-05-27T08:29:29Z</time>
      </trkpt>
      <trkpt lat="44.64456" lon="2.98756">
        <ele>1371.4</ele>
        <time>2014-05-27T08:29:36Z</time>
      </trkpt>
      <trkpt lat="44.64449" lon="2.98748">
        <ele>1373.4</ele>
        <time>2014-05-27T08:29:51Z</time>
      </trkpt>
      <trkpt lat="44.64446" lon="2.98738">
        <ele>1373.7</ele>
        <time>2014-05-27T08:29:56Z</time>
      </trkpt>
      <trkpt lat="44.64449" lon="2.98748">
        <ele>1373.4</ele>
        <time>2014-05-27T08:30:04Z</time>
      </trkpt>
      <trkpt lat="44.64443" lon="2.9873">
        <ele>1376.9</ele>
        <time>2014-05-27T08:30:14Z</time>
      </trkpt>
      <trkpt lat="44.6444" lon="2.98718">
        <ele>1376</ele>
        <time>2014-05-27T08:30:25Z</time>
      </trkpt>
      <trkpt lat="44.64432" lon="2.98681">
        <ele>1377.9</ele>
        <time>2014-05-27T08:30:58Z</time>
      </trkpt>
      <trkpt lat="44.64427" lon="2.98663">
        <ele>1378</ele>
        <time>2014-05-27T08:31:12Z</time>
      </trkpt>
      <trkpt lat="44.6442" lon="2.98645">
        <ele>1374.7</ele>
        <time>2014-05-27T08:31:24Z</time>
      </trkpt>
      <trkpt lat="44.64411" lon="2.9864">
        <ele>1372.7</ele>
        <time>2014-05-27T08:31:36Z</time>
      </trkpt>
      <trkpt lat="44.64395" lon="2.9864">
        <ele>1372.8</ele>
        <time>2014-05-27T08:31:51Z</time>
      </trkpt>
      <trkpt lat="44.64377" lon="2.98647">
        <ele>1373.5</ele>
        <time>2014-05-27T08:32:08Z</time>
      </trkpt>
      <trkpt lat="44.64366" lon="2.98654">
        <ele>1372.7</ele>
        <time>2014-05-27T08:32:20Z</time>
      </trkpt>
      <trkpt lat="44.64346" lon="2.98666">
        <ele>1372.4</ele>
        <time>2014-05-27T08:32:38Z</time>
      </trkpt>
      <trkpt lat="44.64343" lon="2.98667">
        <ele>1372.7</ele>
        <time>2014-05-27T08:32:39Z</time>
      </trkpt>
      <trkpt lat="44.64337" lon="2.98671">
        <ele>1369.1</ele>
        <time>2014-05-27T08:32:50Z</time>
      </trkpt>
      <trkpt lat="44.64328" lon="2.98673">
        <ele>1369.3</ele>
        <time>2014-05-27T08:33:00Z</time>
      </trkpt>
      <trkpt lat="44.64299" lon="2.98683">
        <ele>1370.6</ele>
        <time>2014-05-27T08:33:50Z</time>
      </trkpt>
      <trkpt lat="44.64285" lon="2.98689">
        <ele>1370.5</ele>
        <time>2014-05-27T08:34:04Z</time>
      </trkpt>
      <trkpt lat="44.64269" lon="2.98695">
        <ele>1369.4</ele>
        <time>2014-05-27T08:34:21Z</time>
      </trkpt>
      <trkpt lat="44.64255" lon="2.98705">
        <ele>1369.8</ele>
        <time>2014-05-27T08:34:37Z</time>
      </trkpt>
      <trkpt lat="44.64237" lon="2.98712">
        <ele>1368.2</ele>
        <time>2014-05-27T08:34:54Z</time>
      </trkpt>
      <trkpt lat="44.64219" lon="2.98722">
        <ele>1365.6</ele>
        <time>2014-05-27T08:35:12Z</time>
      </trkpt>
      <trkpt lat="44.64203" lon="2.98731">
        <ele>1370.1</ele>
        <time>2014-05-27T08:35:29Z</time>
      </trkpt>
      <trkpt lat="44.64185" lon="2.98738">
        <ele>1369.4</ele>
        <time>2014-05-27T08:35:46Z</time>
      </trkpt>
      <trkpt lat="44.64167" lon="2.98743">
        <ele>1368.4</ele>
        <time>2014-05-27T08:36:03Z</time>
      </trkpt>
      <trkpt lat="44.64149" lon="2.98752">
        <ele>1364.6</ele>
        <time>2014-05-27T08:36:21Z</time>
      </trkpt>
      <trkpt lat="44.64132" lon="2.98754">
        <ele>1362.7</ele>
        <time>2014-05-27T08:36:39Z</time>
      </trkpt>
      <trkpt lat="44.64125" lon="2.98767">
        <ele>1362.2</ele>
        <time>2014-05-27T08:36:50Z</time>
      </trkpt>
      <trkpt lat="44.64115" lon="2.98781">
        <ele>1363.5</ele>
        <time>2014-05-27T08:37:06Z</time>
      </trkpt>
      <trkpt lat="44.64105" lon="2.9879">
        <ele>1363.4</ele>
        <time>2014-05-27T08:37:18Z</time>
      </trkpt>
      <trkpt lat="44.64091" lon="2.98806">
        <ele>1365.6</ele>
        <time>2014-05-27T08:37:39Z</time>
      </trkpt>
      <trkpt lat="44.64077" lon="2.9882">
        <ele>1366.1</ele>
        <time>2014-05-27T08:37:57Z</time>
      </trkpt>
      <trkpt lat="44.64065" lon="2.98832">
        <ele>1365.6</ele>
        <time>2014-05-27T08:38:12Z</time>
      </trkpt>
      <trkpt lat="44.64061" lon="2.98837">
        <ele>1368.1</ele>
        <time>2014-05-27T08:38:20Z</time>
      </trkpt>
      <trkpt lat="44.64057" lon="2.98841">
        <ele>1367</ele>
        <time>2014-05-27T08:38:33Z</time>
      </trkpt>
      <trkpt lat="44.64044" lon="2.9885">
        <ele>1371.2</ele>
        <time>2014-05-27T08:38:47Z</time>
      </trkpt>
      <trkpt lat="44.64027" lon="2.98862">
        <ele>1371.2</ele>
        <time>2014-05-27T08:39:07Z</time>
      </trkpt>
      <trkpt lat="44.64018" lon="2.98869">
        <ele>1370.4</ele>
        <time>2014-05-27T08:39:17Z</time>
      </trkpt>
      <trkpt lat="44.64007" lon="2.98876">
        <ele>1373</ele>
        <time>2014-05-27T08:39:27Z</time>
      </trkpt>
      <trkpt lat="44.63996" lon="2.98884">
        <ele>1375.3</ele>
        <time>2014-05-27T08:39:40Z</time>
      </trkpt>
      <trkpt lat="44.63979" lon="2.98898">
        <ele>1376.8</ele>
        <time>2014-05-27T08:39:58Z</time>
      </trkpt>
      <trkpt lat="44.63964" lon="2.98906">
        <ele>1375.6</ele>
        <time>2014-05-27T08:40:16Z</time>
      </trkpt>
      <trkpt lat="44.63955" lon="2.98916">
        <ele>1376.9</ele>
        <time>2014-05-27T08:40:28Z</time>
      </trkpt>
      <trkpt lat="44.63941" lon="2.98925">
        <ele>1375.9</ele>
        <time>2014-05-27T08:40:44Z</time>
      </trkpt>
      <trkpt lat="44.63932" lon="2.98933">
        <ele>1376.7</ele>
        <time>2014-05-27T08:40:56Z</time>
      </trkpt>
      <trkpt lat="44.6392" lon="2.98944">
        <ele>1377.5</ele>
        <time>2014-05-27T08:41:10Z</time>
      </trkpt>
      <trkpt lat="44.63907" lon="2.98957">
        <ele>1378.4</ele>
        <time>2014-05-27T08:41:28Z</time>
      </trkpt>
      <trkpt lat="44.63898" lon="2.98967">
        <ele>1379.4</ele>
        <time>2014-05-27T08:41:39Z</time>
      </trkpt>
      <trkpt lat="44.63886" lon="2.98979">
        <ele>1380.4</ele>
        <time>2014-05-27T08:41:54Z</time>
      </trkpt>
      <trkpt lat="44.63871" lon="2.9899">
        <ele>1381.6</ele>
        <time>2014-05-27T08:42:11Z</time>
      </trkpt>
      <trkpt lat="44.63861" lon="2.98999">
        <ele>1381.7</ele>
        <time>2014-05-27T08:42:24Z</time>
      </trkpt>
      <trkpt lat="44.63845" lon="2.99013">
        <ele>1383.2</ele>
        <time>2014-05-27T08:42:42Z</time>
      </trkpt>
      <trkpt lat="44.63833" lon="2.9903">
        <ele>1383.1</ele>
        <time>2014-05-27T08:42:58Z</time>
      </trkpt>
      <trkpt lat="44.63815" lon="2.9904">
        <ele>1385.1</ele>
        <time>2014-05-27T08:43:15Z</time>
      </trkpt>
      <trkpt lat="44.63802" lon="2.99051">
        <ele>1386.9</ele>
        <time>2014-05-27T08:43:29Z</time>
      </trkpt>
      <trkpt lat="44.63789" lon="2.99059">
        <ele>1388</ele>
        <time>2014-05-27T08:43:43Z</time>
      </trkpt>
      <trkpt lat="44.63772" lon="2.99072">
        <ele>1389</ele>
        <time>2014-05-27T08:44:02Z</time>
      </trkpt>
      <trkpt lat="44.63755" lon="2.99082">
        <ele>1393.5</ele>
        <time>2014-05-27T08:44:22Z</time>
      </trkpt>
      <trkpt lat="44.63735" lon="2.99103">
        <ele>1398.5</ele>
        <time>2014-05-27T08:44:51Z</time>
      </trkpt>
      <trkpt lat="44.63724" lon="2.99117">
        <ele>1401.7</ele>
        <time>2014-05-27T08:45:06Z</time>
      </trkpt>
      <trkpt lat="44.63717" lon="2.99118">
        <ele>1399.9</ele>
        <time>2014-05-27T08:45:13Z</time>
      </trkpt>
      <trkpt lat="44.63716" lon="2.99126">
        <ele>1400.4</ele>
        <time>2014-05-27T08:45:22Z</time>
      </trkpt>
      <trkpt lat="44.63716" lon="2.99126">
        <ele>1349</ele>
        <time>2014-05-27T08:47:10Z</time>
      </trkpt>
      <trkpt lat="44.63716" lon="2.99126">
        <ele>1349</ele>
        <time>2014-05-27T08:50:01Z</time>
      </trkpt>
      <trkpt lat="44.63705" lon="2.99133">
        <ele>1401.5</ele>
        <time>2014-05-27T08:50:01Z</time>
      </trkpt>
      <trkpt lat="44.63685" lon="2.99158">
        <ele>1403.2</ele>
        <time>2014-05-27T08:51:37Z</time>
      </trkpt>
      <trkpt lat="44.63663" lon="2.99184">
        <ele>1406.5</ele>
        <time>2014-05-27T08:52:10Z</time>
      </trkpt>
      <trkpt lat="44.6365" lon="2.99194">
        <ele>1408.3</ele>
        <time>2014-05-27T08:52:26Z</time>
      </trkpt>
      <trkpt lat="44.63626" lon="2.99221">
        <ele>1409.4</ele>
        <time>2014-05-27T08:53:20Z</time>
      </trkpt>
      <trkpt lat="44.63616" lon="2.99237">
        <ele>1409.7</ele>
        <time>2014-05-27T08:53:33Z</time>
      </trkpt>
      <trkpt lat="44.63603" lon="2.99249">
        <ele>1409.4</ele>
        <time>2014-05-27T08:53:47Z</time>
      </trkpt>
      <trkpt lat="44.63592" lon="2.99262">
        <ele>1411.9</ele>
        <time>2014-05-27T08:53:58Z</time>
      </trkpt>
      <trkpt lat="44.6358" lon="2.99279">
        <ele>1412.5</ele>
        <time>2014-05-27T08:54:12Z</time>
      </trkpt>
      <trkpt lat="44.63564" lon="2.99302">
        <ele>1411.9</ele>
        <time>2014-05-27T08:54:31Z</time>
      </trkpt>
      <trkpt lat="44.63549" lon="2.99314">
        <ele>1412.8</ele>
        <time>2014-05-27T08:54:43Z</time>
      </trkpt>
      <trkpt lat="44.63539" lon="2.99328">
        <ele>1412.5</ele>
        <time>2014-05-27T08:54:54Z</time>
      </trkpt>
      <trkpt lat="44.63526" lon="2.99337">
        <ele>1413.8</ele>
        <time>2014-05-27T08:55:06Z</time>
      </trkpt>
      <trkpt lat="44.63511" lon="2.99352">
        <ele>1413.1</ele>
        <time>2014-05-27T08:55:23Z</time>
      </trkpt>
      <trkpt lat="44.63498" lon="2.99365">
        <ele>1414.2</ele>
        <time>2014-05-27T08:55:35Z</time>
      </trkpt>
      <trkpt lat="44.6349" lon="2.99375">
        <ele>1414.6</ele>
        <time>2014-05-27T08:55:46Z</time>
      </trkpt>
      <trkpt lat="44.63471" lon="2.99386">
        <ele>1417.4</ele>
        <time>2014-05-27T08:56:03Z</time>
      </trkpt>
      <trkpt lat="44.63463" lon="2.99385">
        <ele>1417.8</ele>
        <time>2014-05-27T08:56:13Z</time>
      </trkpt>
      <trkpt lat="44.63456" lon="2.99391">
        <ele>1418.4</ele>
        <time>2014-05-27T08:56:29Z</time>
      </trkpt>
      <trkpt lat="44.63442" lon="2.99402">
        <ele>1419.7</ele>
        <time>2014-05-27T08:56:44Z</time>
      </trkpt>
      <trkpt lat="44.63417" lon="2.99411">
        <ele>1420.4</ele>
        <time>2014-05-27T08:57:06Z</time>
      </trkpt>
      <trkpt lat="44.634" lon="2.99417">
        <ele>1417.5</ele>
        <time>2014-05-27T08:57:27Z</time>
      </trkpt>
      <trkpt lat="44.63387" lon="2.99417">
        <ele>1420.8</ele>
        <time>2014-05-27T08:57:39Z</time>
      </trkpt>
      <trkpt lat="44.63372" lon="2.99424">
        <ele>1423.9</ele>
        <time>2014-05-27T08:57:55Z</time>
      </trkpt>
      <trkpt lat="44.63363" lon="2.99423">
        <ele>1421.4</ele>
        <time>2014-05-27T08:58:08Z</time>
      </trkpt>
      <trkpt lat="44.6336" lon="2.99426">
        <ele>1421.1</ele>
        <time>2014-05-27T08:58:16Z</time>
      </trkpt>
      <trkpt lat="44.63344" lon="2.99417">
        <ele>1421.4</ele>
        <time>2014-05-27T08:59:07Z</time>
      </trkpt>
      <trkpt lat="44.63331" lon="2.99406">
        <ele>1419.9</ele>
        <time>2014-05-27T08:59:23Z</time>
      </trkpt>
      <trkpt lat="44.63319" lon="2.99388">
        <ele>1422</ele>
        <time>2014-05-27T08:59:33Z</time>
      </trkpt>
      <trkpt lat="44.63314" lon="2.99385">
        <ele>1420.3</ele>
        <time>2014-05-27T08:59:37Z</time>
      </trkpt>
      <trkpt lat="44.63306" lon="2.99384">
        <ele>1420.4</ele>
        <time>2014-05-27T08:59:47Z</time>
      </trkpt>
      <trkpt lat="44.63302" lon="2.99383">
        <ele>1420</ele>
        <time>2014-05-27T08:59:51Z</time>
      </trkpt>
      <trkpt lat="44.63297" lon="2.99373">
        <ele>1418.7</ele>
        <time>2014-05-27T09:00:00Z</time>
      </trkpt>
      <trkpt lat="44.6329" lon="2.99364">
        <ele>1419.3</ele>
        <time>2014-05-27T09:00:08Z</time>
      </trkpt>
      <trkpt lat="44.63273" lon="2.99349">
        <ele>1420.7</ele>
        <time>2014-05-27T09:00:23Z</time>
      </trkpt>
      <trkpt lat="44.63256" lon="2.99342">
        <ele>1419</ele>
        <time>2014-05-27T09:00:39Z</time>
      </trkpt>
      <trkpt lat="44.63242" lon="2.99334">
        <ele>1417.5</ele>
        <time>2014-05-27T09:00:54Z</time>
      </trkpt>
      <trkpt lat="44.63235" lon="2.99324">
        <ele>1419.7</ele>
        <time>2014-05-27T09:01:01Z</time>
      </trkpt>
      <trkpt lat="44.63226" lon="2.99315">
        <ele>1416.5</ele>
        <time>2014-05-27T09:01:08Z</time>
      </trkpt>
      <trkpt lat="44.6322" lon="2.99319">
        <ele>1413.6</ele>
        <time>2014-05-27T09:01:18Z</time>
      </trkpt>
      <trkpt lat="44.63205" lon="2.99305">
        <ele>1416.9</ele>
        <time>2014-05-27T09:01:33Z</time>
      </trkpt>
      <trkpt lat="44.63191" lon="2.99294">
        <ele>1414.1</ele>
        <time>2014-05-27T09:01:48Z</time>
      </trkpt>
      <trkpt lat="44.63174" lon="2.99274">
        <ele>1416.4</ele>
        <time>2014-05-27T09:02:05Z</time>
      </trkpt>
      <trkpt lat="44.63156" lon="2.99262">
        <ele>1417.7</ele>
        <time>2014-05-27T09:02:24Z</time>
      </trkpt>
      <trkpt lat="44.6314" lon="2.99246">
        <ele>1414.4</ele>
        <time>2014-05-27T09:02:36Z</time>
      </trkpt>
      <trkpt lat="44.63131" lon="2.9924">
        <ele>1415.6</ele>
        <time>2014-05-27T09:02:44Z</time>
      </trkpt>
      <trkpt lat="44.63127" lon="2.99245">
        <ele>1415.7</ele>
        <time>2014-05-27T09:02:51Z</time>
      </trkpt>
      <trkpt lat="44.63125" lon="2.99246">
        <ele>1414.6</ele>
        <time>2014-05-27T09:03:00Z</time>
      </trkpt>
      <trkpt lat="44.63104" lon="2.99239">
        <ele>1406.2</ele>
        <time>2014-05-27T09:03:55Z</time>
      </trkpt>
      <trkpt lat="44.63084" lon="2.9921">
        <ele>1413.9</ele>
        <time>2014-05-27T09:04:13Z</time>
      </trkpt>
      <trkpt lat="44.63072" lon="2.99195">
        <ele>1412.4</ele>
        <time>2014-05-27T09:04:27Z</time>
      </trkpt>
      <trkpt lat="44.6306" lon="2.99183">
        <ele>1413.8</ele>
        <time>2014-05-27T09:04:39Z</time>
      </trkpt>
      <trkpt lat="44.63055" lon="2.99175">
        <ele>1412.2</ele>
        <time>2014-05-27T09:04:48Z</time>
      </trkpt>
      <trkpt lat="44.63046" lon="2.99159">
        <ele>1408.7</ele>
        <time>2014-05-27T09:05:03Z</time>
      </trkpt>
      <trkpt lat="44.63037" lon="2.9914">
        <ele>1411.6</ele>
        <time>2014-05-27T09:05:13Z</time>
      </trkpt>
      <trkpt lat="44.63029" lon="2.99124">
        <ele>1410.7</ele>
        <time>2014-05-27T09:05:23Z</time>
      </trkpt>
      <trkpt lat="44.63027" lon="2.991">
        <ele>1413.7</ele>
        <time>2014-05-27T09:05:30Z</time>
      </trkpt>
      <trkpt lat="44.63022" lon="2.99087">
        <ele>1412.6</ele>
        <time>2014-05-27T09:05:41Z</time>
      </trkpt>
      <trkpt lat="44.63022" lon="2.99087">
        <ele>1412.6</ele>
        <time>2014-05-27T09:05:47Z</time>
      </trkpt>
      <trkpt lat="44.63022" lon="2.99087">
        <ele>1412.6</ele>
        <time>2014-05-27T09:05:48Z</time>
      </trkpt>
      <trkpt lat="44.6301" lon="2.99069">
        <ele>1405.2</ele>
        <time>2014-05-27T09:06:00Z</time>
      </trkpt>
      <trkpt lat="44.63001" lon="2.99053">
        <ele>1406</ele>
        <time>2014-05-27T09:06:11Z</time>
      </trkpt>
      <trkpt lat="44.62985" lon="2.99018">
        <ele>1411.5</ele>
        <time>2014-05-27T09:06:30Z</time>
      </trkpt>
      <trkpt lat="44.62974" lon="2.99">
        <ele>1404.3</ele>
        <time>2014-05-27T09:06:48Z</time>
      </trkpt>
      <trkpt lat="44.62967" lon="2.98986">
        <ele>1407.7</ele>
        <time>2014-05-27T09:06:56Z</time>
      </trkpt>
      <trkpt lat="44.62944" lon="2.98957">
        <ele>1406.5</ele>
        <time>2014-05-27T09:07:16Z</time>
      </trkpt>
      <trkpt lat="44.6293" lon="2.98942">
        <ele>1406.9</ele>
        <time>2014-05-27T09:07:29Z</time>
      </trkpt>
      <trkpt lat="44.62919" lon="2.98929">
        <ele>1406.7</ele>
        <time>2014-05-27T09:07:41Z</time>
      </trkpt>
      <trkpt lat="44.62904" lon="2.98921">
        <ele>1402.6</ele>
        <time>2014-05-27T09:07:55Z</time>
      </trkpt>
      <trkpt lat="44.62901" lon="2.98913">
        <ele>1400.1</ele>
        <time>2014-05-27T09:08:07Z</time>
      </trkpt>
      <trkpt lat="44.62892" lon="2.98905">
        <ele>1400.5</ele>
        <time>2014-05-27T09:08:14Z</time>
      </trkpt>
      <trkpt lat="44.62883" lon="2.98895">
        <ele>1401.1</ele>
        <time>2014-05-27T09:08:23Z</time>
      </trkpt>
      <trkpt lat="44.6286" lon="2.98877">
        <ele>1405.4</ele>
        <time>2014-05-27T09:08:42Z</time>
      </trkpt>
      <trkpt lat="44.62849" lon="2.98867">
        <ele>1406.2</ele>
        <time>2014-05-27T09:08:52Z</time>
      </trkpt>
      <trkpt lat="44.62834" lon="2.98853">
        <ele>1406.6</ele>
        <time>2014-05-27T09:09:06Z</time>
      </trkpt>
      <trkpt lat="44.6282" lon="2.98853">
        <ele>1403.9</ele>
        <time>2014-05-27T09:09:18Z</time>
      </trkpt>
      <trkpt lat="44.62801" lon="2.98837">
        <ele>1405.4</ele>
        <time>2014-05-27T09:09:34Z</time>
      </trkpt>
      <trkpt lat="44.62785" lon="2.98827">
        <ele>1404.4</ele>
        <time>2014-05-27T09:09:48Z</time>
      </trkpt>
      <trkpt lat="44.62774" lon="2.98821">
        <ele>1401.9</ele>
        <time>2014-05-27T09:09:58Z</time>
      </trkpt>
      <trkpt lat="44.62759" lon="2.98812">
        <ele>1399.9</ele>
        <time>2014-05-27T09:10:12Z</time>
      </trkpt>
      <trkpt lat="44.62745" lon="2.988">
        <ele>1397.6</ele>
        <time>2014-05-27T09:10:29Z</time>
      </trkpt>
      <trkpt lat="44.62728" lon="2.98783">
        <ele>1400.1</ele>
        <time>2014-05-27T09:10:44Z</time>
      </trkpt>
      <trkpt lat="44.62712" lon="2.98778">
        <ele>1394.2</ele>
        <time>2014-05-27T09:11:03Z</time>
      </trkpt>
      <trkpt lat="44.62682" lon="2.98766">
        <ele>1389.6</ele>
        <time>2014-05-27T09:12:02Z</time>
      </trkpt>
      <trkpt lat="44.6267" lon="2.98771">
        <ele>1383.1</ele>
        <time>2014-05-27T09:12:15Z</time>
      </trkpt>
      <trkpt lat="44.62654" lon="2.98766">
        <ele>1381.1</ele>
        <time>2014-05-27T09:12:32Z</time>
      </trkpt>
      <trkpt lat="44.62639" lon="2.98766">
        <ele>1377.9</ele>
        <time>2014-05-27T09:12:47Z</time>
      </trkpt>
      <trkpt lat="44.62625" lon="2.98768">
        <ele>1371.8</ele>
        <time>2014-05-27T09:13:03Z</time>
      </trkpt>
      <trkpt lat="44.62601" lon="2.98748">
        <ele>1366</ele>
        <time>2014-05-27T09:13:38Z</time>
      </trkpt>
      <trkpt lat="44.62592" lon="2.98742">
        <ele>1370.2</ele>
        <time>2014-05-27T09:13:48Z</time>
      </trkpt>
      <trkpt lat="44.62591" lon="2.98742">
        <ele>1369.1</ele>
        <time>2014-05-27T09:13:56Z</time>
      </trkpt>
      <trkpt lat="44.62564" lon="2.98744">
        <ele>1365.2</ele>
        <time>2014-05-27T09:14:59Z</time>
      </trkpt>
      <trkpt lat="44.62549" lon="2.98742">
        <ele>1364.4</ele>
        <time>2014-05-27T09:15:12Z</time>
      </trkpt>
      <trkpt lat="44.62539" lon="2.98741">
        <ele>1365.8</ele>
        <time>2014-05-27T09:15:22Z</time>
      </trkpt>
      <trkpt lat="44.62536" lon="2.98735">
        <ele>1365.5</ele>
        <time>2014-05-27T09:15:29Z</time>
      </trkpt>
      <trkpt lat="44.62535" lon="2.98743">
        <ele>1368.5</ele>
        <time>2014-05-27T09:16:07Z</time>
      </trkpt>
      <trkpt lat="44.62515" lon="2.98732">
        <ele>1358</ele>
        <time>2014-05-27T09:18:02Z</time>
      </trkpt>
      <trkpt lat="44.62503" lon="2.98728">
        <ele>1360.2</ele>
        <time>2014-05-27T09:18:15Z</time>
      </trkpt>
      <trkpt lat="44.62498" lon="2.98725">
        <ele>1358.1</ele>
        <time>2014-05-27T09:18:20Z</time>
      </trkpt>
      <trkpt lat="44.62493" lon="2.98728">
        <ele>1352.5</ele>
        <time>2014-05-27T09:18:31Z</time>
      </trkpt>
      <trkpt lat="44.62479" lon="2.98726">
        <ele>1348.1</ele>
        <time>2014-05-27T09:18:44Z</time>
      </trkpt>
      <trkpt lat="44.62477" lon="2.98725">
        <ele>1348</ele>
        <time>2014-05-27T09:18:46Z</time>
      </trkpt>
      <trkpt lat="44.62467" lon="2.98726">
        <ele>1349</ele>
        <time>2014-05-27T09:18:57Z</time>
      </trkpt>
      <trkpt lat="44.62448" lon="2.98721">
        <ele>1351.3</ele>
        <time>2014-05-27T09:19:13Z</time>
      </trkpt>
      <trkpt lat="44.62429" lon="2.98714">
        <ele>1358.5</ele>
        <time>2014-05-27T09:19:31Z</time>
      </trkpt>
      <trkpt lat="44.62429" lon="2.98714">
        <ele>1358.5</ele>
        <time>2014-05-27T09:19:39Z</time>
      </trkpt>
      <trkpt lat="44.62429" lon="2.98714">
        <ele>1358.5</ele>
        <time>2014-05-27T09:19:40Z</time>
      </trkpt>
      <trkpt lat="44.62399" lon="2.98708">
        <ele>1358.5</ele>
        <time>2014-05-27T09:20:15Z</time>
      </trkpt>
      <trkpt lat="44.62385" lon="2.98702">
        <ele>1360.7</ele>
        <time>2014-05-27T09:20:28Z</time>
      </trkpt>
      <trkpt lat="44.62334" lon="2.9871">
        <ele>1357.5</ele>
        <time>2014-05-27T09:21:09Z</time>
      </trkpt>
      <trkpt lat="44.62324" lon="2.98722">
        <ele>1358.9</ele>
        <time>2014-05-27T09:21:25Z</time>
      </trkpt>
      <trkpt lat="44.62317" lon="2.98733">
        <ele>1358.2</ele>
        <time>2014-05-27T09:21:35Z</time>
      </trkpt>
      <trkpt lat="44.62308" lon="2.98745">
        <ele>1362.6</ele>
        <time>2014-05-27T09:21:42Z</time>
      </trkpt>
      <trkpt lat="44.62298" lon="2.98731">
        <ele>1364.6</ele>
        <time>2014-05-27T09:21:54Z</time>
      </trkpt>
      <trkpt lat="44.62289" lon="2.98716">
        <ele>1363.5</ele>
        <time>2014-05-27T09:22:06Z</time>
      </trkpt>
      <trkpt lat="44.6228" lon="2.98709">
        <ele>1359.3</ele>
        <time>2014-05-27T09:22:20Z</time>
      </trkpt>
      <trkpt lat="44.62272" lon="2.98702">
        <ele>1356.5</ele>
        <time>2014-05-27T09:22:35Z</time>
      </trkpt>
      <trkpt lat="44.62264" lon="2.98696">
        <ele>1359.4</ele>
        <time>2014-05-27T09:22:50Z</time>
      </trkpt>
      <trkpt lat="44.62239" lon="2.98684">
        <ele>1366</ele>
        <time>2014-05-27T09:23:28Z</time>
      </trkpt>
      <trkpt lat="44.62234" lon="2.98683">
        <ele>1366.6</ele>
        <time>2014-05-27T09:23:33Z</time>
      </trkpt>
      <trkpt lat="44.62239" lon="2.98684">
        <ele>1366</ele>
        <time>2014-05-27T09:23:42Z</time>
      </trkpt>
      <trkpt lat="44.62227" lon="2.98686">
        <ele>1361.8</ele>
        <time>2014-05-27T09:23:54Z</time>
      </trkpt>
      <trkpt lat="44.62216" lon="2.98678">
        <ele>1361.6</ele>
        <time>2014-05-27T09:24:08Z</time>
      </trkpt>
      <trkpt lat="44.62208" lon="2.98688">
        <ele>1364.1</ele>
        <time>2014-05-27T09:24:25Z</time>
      </trkpt>
      <trkpt lat="44.62209" lon="2.98694">
        <ele>1362.2</ele>
        <time>2014-05-27T09:24:31Z</time>
      </trkpt>
      <trkpt lat="44.6221" lon="2.98695">
        <ele>1359</ele>
        <time>2014-05-27T09:24:39Z</time>
      </trkpt>
      <trkpt lat="44.6221" lon="2.98695">
        <ele>1307</ele>
        <time>2014-05-27T09:27:43Z</time>
      </trkpt>
      <trkpt lat="44.6221" lon="2.98695">
        <ele>1307</ele>
        <time>2014-05-27T09:27:44Z</time>
      </trkpt>
      <trkpt lat="44.62168" lon="2.98656">
        <ele>1311</ele>
        <time>2014-05-27T10:08:44Z</time>
      </trkpt>
      <trkpt lat="44.62168" lon="2.98656">
        <ele>1360.1</ele>
        <time>2014-05-27T10:09:16Z</time>
      </trkpt>
      <trkpt lat="44.62178" lon="2.98634">
        <ele>1368.8</ele>
        <time>2014-05-27T10:09:26Z</time>
      </trkpt>
      <trkpt lat="44.62181" lon="2.98619">
        <ele>1365.4</ele>
        <time>2014-05-27T10:09:38Z</time>
      </trkpt>
      <trkpt lat="44.62186" lon="2.98617">
        <ele>1363.7</ele>
        <time>2014-05-27T10:09:42Z</time>
      </trkpt>
      <trkpt lat="44.62179" lon="2.98598">
        <ele>1362.4</ele>
        <time>2014-05-27T10:09:56Z</time>
      </trkpt>
      <trkpt lat="44.6218" lon="2.98573">
        <ele>1363.1</ele>
        <time>2014-05-27T10:10:10Z</time>
      </trkpt>
      <trkpt lat="44.62177" lon="2.98552">
        <ele>1363.5</ele>
        <time>2014-05-27T10:10:23Z</time>
      </trkpt>
      <trkpt lat="44.6216" lon="2.98533">
        <ele>1365.3</ele>
        <time>2014-05-27T10:10:45Z</time>
      </trkpt>
      <trkpt lat="44.6216" lon="2.98533">
        <ele>1314</ele>
        <time>2014-05-27T10:10:46Z</time>
      </trkpt>
      <trkpt lat="44.6216" lon="2.98533">
        <ele>1314</ele>
        <time>2014-05-27T10:10:47Z</time>
      </trkpt>
      <trkpt lat="44.62158" lon="2.9853">
        <ele>1364.4</ele>
        <time>2014-05-27T10:10:48Z</time>
      </trkpt>
      <trkpt lat="44.62167" lon="2.98507">
        <ele>1367.1</ele>
        <time>2014-05-27T10:11:02Z</time>
      </trkpt>
      <trkpt lat="44.62181" lon="2.9851">
        <ele>1368.1</ele>
        <time>2014-05-27T10:11:06Z</time>
      </trkpt>
      <trkpt lat="44.62172" lon="2.98496">
        <ele>1368.6</ele>
        <time>2014-05-27T10:11:16Z</time>
      </trkpt>
      <trkpt lat="44.62161" lon="2.98473">
        <ele>1367.2</ele>
        <time>2014-05-27T10:11:30Z</time>
      </trkpt>
      <trkpt lat="44.62156" lon="2.98448">
        <ele>1368.6</ele>
        <time>2014-05-27T10:11:44Z</time>
      </trkpt>
      <trkpt lat="44.62146" lon="2.98427">
        <ele>1366.6</ele>
        <time>2014-05-27T10:12:02Z</time>
      </trkpt>
      <trkpt lat="44.62134" lon="2.98403">
        <ele>1369.1</ele>
        <time>2014-05-27T10:12:19Z</time>
      </trkpt>
      <trkpt lat="44.6212" lon="2.98383">
        <ele>1368.9</ele>
        <time>2014-05-27T10:12:38Z</time>
      </trkpt>
      <trkpt lat="44.62111" lon="2.98362">
        <ele>1372.4</ele>
        <time>2014-05-27T10:12:49Z</time>
      </trkpt>
      <trkpt lat="44.62099" lon="2.98353">
        <ele>1370.7</ele>
        <time>2014-05-27T10:13:03Z</time>
      </trkpt>
      <trkpt lat="44.62091" lon="2.9834">
        <ele>1372.1</ele>
        <time>2014-05-27T10:13:16Z</time>
      </trkpt>
      <trkpt lat="44.62086" lon="2.98314">
        <ele>1373.9</ele>
        <time>2014-05-27T10:13:28Z</time>
      </trkpt>
      <trkpt lat="44.62085" lon="2.98311">
        <ele>1374.1</ele>
        <time>2014-05-27T10:13:29Z</time>
      </trkpt>
      <trkpt lat="44.62079" lon="2.98299">
        <ele>1373.9</ele>
        <time>2014-05-27T10:13:41Z</time>
      </trkpt>
      <trkpt lat="44.62074" lon="2.9828">
        <ele>1372.4</ele>
        <time>2014-05-27T10:13:57Z</time>
      </trkpt>
      <trkpt lat="44.62069" lon="2.98262">
        <ele>1373.1</ele>
        <time>2014-05-27T10:14:08Z</time>
      </trkpt>
      <trkpt lat="44.62062" lon="2.9825">
        <ele>1369.3</ele>
        <time>2014-05-27T10:14:22Z</time>
      </trkpt>
      <trkpt lat="44.62046" lon="2.9823">
        <ele>1368.3</ele>
        <time>2014-05-27T10:14:39Z</time>
      </trkpt>
      <trkpt lat="44.62035" lon="2.98212">
        <ele>1365.4</ele>
        <time>2014-05-27T10:14:54Z</time>
      </trkpt>
      <trkpt lat="44.62018" lon="2.98196">
        <ele>1365.6</ele>
        <time>2014-05-27T10:15:09Z</time>
      </trkpt>
      <trkpt lat="44.62004" lon="2.98183">
        <ele>1366.5</ele>
        <time>2014-05-27T10:15:24Z</time>
      </trkpt>
      <trkpt lat="44.61994" lon="2.98169">
        <ele>1368.6</ele>
        <time>2014-05-27T10:15:40Z</time>
      </trkpt>
      <trkpt lat="44.61981" lon="2.9814">
        <ele>1370.4</ele>
        <time>2014-05-27T10:16:00Z</time>
      </trkpt>
      <trkpt lat="44.61979" lon="2.98134">
        <ele>1370.9</ele>
        <time>2014-05-27T10:16:03Z</time>
      </trkpt>
      <trkpt lat="44.61977" lon="2.98127">
        <ele>1370.1</ele>
        <time>2014-05-27T10:16:18Z</time>
      </trkpt>
      <trkpt lat="44.61971" lon="2.98106">
        <ele>1366</ele>
        <time>2014-05-27T10:16:31Z</time>
      </trkpt>
      <trkpt lat="44.61968" lon="2.98086">
        <ele>1366.5</ele>
        <time>2014-05-27T10:16:43Z</time>
      </trkpt>
      <trkpt lat="44.61958" lon="2.98061">
        <ele>1366.9</ele>
        <time>2014-05-27T10:16:57Z</time>
      </trkpt>
      <trkpt lat="44.61954" lon="2.98042">
        <ele>1366.3</ele>
        <time>2014-05-27T10:17:14Z</time>
      </trkpt>
      <trkpt lat="44.6195" lon="2.98028">
        <ele>1365.7</ele>
        <time>2014-05-27T10:17:21Z</time>
      </trkpt>
      <trkpt lat="44.61945" lon="2.98004">
        <ele>1368.3</ele>
        <time>2014-05-27T10:17:32Z</time>
      </trkpt>
      <trkpt lat="44.61939" lon="2.97982">
        <ele>1368.8</ele>
        <time>2014-05-27T10:17:44Z</time>
      </trkpt>
      <trkpt lat="44.61935" lon="2.97963">
        <ele>1368.4</ele>
        <time>2014-05-27T10:17:57Z</time>
      </trkpt>
      <trkpt lat="44.61929" lon="2.97945">
        <ele>1367.9</ele>
        <time>2014-05-27T10:18:08Z</time>
      </trkpt>
      <trkpt lat="44.61924" lon="2.9792">
        <ele>1367.9</ele>
        <time>2014-05-27T10:18:23Z</time>
      </trkpt>
      <trkpt lat="44.61919" lon="2.9789">
        <ele>1367.5</ele>
        <time>2014-05-27T10:18:41Z</time>
      </trkpt>
      <trkpt lat="44.61919" lon="2.9789">
        <ele>1367.5</ele>
        <time>2014-05-27T10:18:49Z</time>
      </trkpt>
      <trkpt lat="44.61919" lon="2.9789">
        <ele>1367.5</ele>
        <time>2014-05-27T10:18:50Z</time>
      </trkpt>
      <trkpt lat="44.61911" lon="2.9785">
        <ele>1361.4</ele>
        <time>2014-05-27T10:24:36Z</time>
      </trkpt>
      <trkpt lat="44.61902" lon="2.97821">
        <ele>1361.6</ele>
        <time>2014-05-27T10:24:52Z</time>
      </trkpt>
      <trkpt lat="44.61893" lon="2.97793">
        <ele>1361.9</ele>
        <time>2014-05-27T10:25:08Z</time>
      </trkpt>
      <trkpt lat="44.61888" lon="2.97774">
        <ele>1360.8</ele>
        <time>2014-05-27T10:25:25Z</time>
      </trkpt>
      <trkpt lat="44.61874" lon="2.97738">
        <ele>1350.8</ele>
        <time>2014-05-27T10:26:14Z</time>
      </trkpt>
      <trkpt lat="44.61875" lon="2.97718">
        <ele>1346.6</ele>
        <time>2014-05-27T10:26:24Z</time>
      </trkpt>
      <trkpt lat="44.61869" lon="2.97702">
        <ele>1348.1</ele>
        <time>2014-05-27T10:26:32Z</time>
      </trkpt>
      <trkpt lat="44.61862" lon="2.97682">
        <ele>1350.9</ele>
        <time>2014-05-27T10:26:40Z</time>
      </trkpt>
      <trkpt lat="44.61859" lon="2.97671">
        <ele>1351.6</ele>
        <time>2014-05-27T10:26:53Z</time>
      </trkpt>
      <trkpt lat="44.61854" lon="2.97653">
        <ele>1354.5</ele>
        <time>2014-05-27T10:27:05Z</time>
      </trkpt>
      <trkpt lat="44.61843" lon="2.97624">
        <ele>1354.8</ele>
        <time>2014-05-27T10:27:18Z</time>
      </trkpt>
      <trkpt lat="44.61839" lon="2.97613">
        <ele>1355.3</ele>
        <time>2014-05-27T10:27:26Z</time>
      </trkpt>
      <trkpt lat="44.61831" lon="2.97592">
        <ele>1354.1</ele>
        <time>2014-05-27T10:27:42Z</time>
      </trkpt>
      <trkpt lat="44.6182" lon="2.97562">
        <ele>1352.6</ele>
        <time>2014-05-27T10:28:00Z</time>
      </trkpt>
      <trkpt lat="44.61809" lon="2.97538">
        <ele>1351.3</ele>
        <time>2014-05-27T10:28:15Z</time>
      </trkpt>
      <trkpt lat="44.61802" lon="2.97525">
        <ele>1351.9</ele>
        <time>2014-05-27T10:28:26Z</time>
      </trkpt>
      <trkpt lat="44.61793" lon="2.97512">
        <ele>1348.5</ele>
        <time>2014-05-27T10:28:42Z</time>
      </trkpt>
      <trkpt lat="44.61783" lon="2.97496">
        <ele>1346.1</ele>
        <time>2014-05-27T10:28:58Z</time>
      </trkpt>
      <trkpt lat="44.61779" lon="2.97468">
        <ele>1345.5</ele>
        <time>2014-05-27T10:29:17Z</time>
      </trkpt>
      <trkpt lat="44.61789" lon="2.97441">
        <ele>1347.5</ele>
        <time>2014-05-27T10:29:35Z</time>
      </trkpt>
      <trkpt lat="44.61789" lon="2.9742">
        <ele>1344.7</ele>
        <time>2014-05-27T10:29:50Z</time>
      </trkpt>
      <trkpt lat="44.61798" lon="2.97398">
        <ele>1342.9</ele>
        <time>2014-05-27T10:30:06Z</time>
      </trkpt>
      <trkpt lat="44.61809" lon="2.97385">
        <ele>1339</ele>
        <time>2014-05-27T10:30:17Z</time>
      </trkpt>
      <trkpt lat="44.61815" lon="2.97371">
        <ele>1337.9</ele>
        <time>2014-05-27T10:30:28Z</time>
      </trkpt>
      <trkpt lat="44.6182" lon="2.97352">
        <ele>1334.7</ele>
        <time>2014-05-27T10:30:41Z</time>
      </trkpt>
      <trkpt lat="44.6183" lon="2.97326">
        <ele>1334.5</ele>
        <time>2014-05-27T10:30:57Z</time>
      </trkpt>
      <trkpt lat="44.61839" lon="2.97311">
        <ele>1330.2</ele>
        <time>2014-05-27T10:31:10Z</time>
      </trkpt>
      <trkpt lat="44.6185" lon="2.97286">
        <ele>1328.4</ele>
        <time>2014-05-27T10:31:27Z</time>
      </trkpt>
      <trkpt lat="44.61853" lon="2.97265">
        <ele>1326.6</ele>
        <time>2014-05-27T10:31:41Z</time>
      </trkpt>
      <trkpt lat="44.61854" lon="2.97245">
        <ele>1326.3</ele>
        <time>2014-05-27T10:31:53Z</time>
      </trkpt>
      <trkpt lat="44.61858" lon="2.97221">
        <ele>1322.3</ele>
        <time>2014-05-27T10:32:12Z</time>
      </trkpt>
      <trkpt lat="44.61855" lon="2.97214">
        <ele>1322.3</ele>
        <time>2014-05-27T10:32:17Z</time>
      </trkpt>
      <trkpt lat="44.61851" lon="2.97202">
        <ele>1317.8</ele>
        <time>2014-05-27T10:32:29Z</time>
      </trkpt>
      <trkpt lat="44.61839" lon="2.97185">
        <ele>1311.8</ele>
        <time>2014-05-27T10:32:39Z</time>
      </trkpt>
      <trkpt lat="44.61832" lon="2.97157">
        <ele>1308</ele>
        <time>2014-05-27T10:32:56Z</time>
      </trkpt>
      <trkpt lat="44.61823" lon="2.97141">
        <ele>1306.1</ele>
        <time>2014-05-27T10:33:06Z</time>
      </trkpt>
      <trkpt lat="44.6182" lon="2.97125">
        <ele>1305.2</ele>
        <time>2014-05-27T10:33:16Z</time>
      </trkpt>
      <trkpt lat="44.61818" lon="2.97112">
        <ele>1304.9</ele>
        <time>2014-05-27T10:33:24Z</time>
      </trkpt>
      <trkpt lat="44.61819" lon="2.97094">
        <ele>1304.6</ele>
        <time>2014-05-27T10:33:35Z</time>
      </trkpt>
      <trkpt lat="44.61817" lon="2.97082">
        <ele>1304.9</ele>
        <time>2014-05-27T10:33:42Z</time>
      </trkpt>
      <trkpt lat="44.61812" lon="2.97047">
        <ele>1304.2</ele>
        <time>2014-05-27T10:34:02Z</time>
      </trkpt>
      <trkpt lat="44.61807" lon="2.97026">
        <ele>1301.7</ele>
        <time>2014-05-27T10:34:16Z</time>
      </trkpt>
      <trkpt lat="44.61804" lon="2.97007">
        <ele>1304.4</ele>
        <time>2014-05-27T10:34:28Z</time>
      </trkpt>
      <trkpt lat="44.61804" lon="2.96978">
        <ele>1303.9</ele>
        <time>2014-05-27T10:34:47Z</time>
      </trkpt>
      <trkpt lat="44.61797" lon="2.96957">
        <ele>1301.5</ele>
        <time>2014-05-27T10:34:59Z</time>
      </trkpt>
      <trkpt lat="44.6179" lon="2.96942">
        <ele>1300</ele>
        <time>2014-05-27T10:35:12Z</time>
      </trkpt>
      <trkpt lat="44.61782" lon="2.96914">
        <ele>1294.9</ele>
        <time>2014-05-27T10:35:30Z</time>
      </trkpt>
      <trkpt lat="44.61775" lon="2.96895">
        <ele>1291.3</ele>
        <time>2014-05-27T10:35:43Z</time>
      </trkpt>
      <trkpt lat="44.61772" lon="2.96856">
        <ele>1286.8</ele>
        <time>2014-05-27T10:36:25Z</time>
      </trkpt>
      <trkpt lat="44.61772" lon="2.96856">
        <ele>1286.8</ele>
        <time>2014-05-27T10:36:32Z</time>
      </trkpt>
      <trkpt lat="44.61772" lon="2.96856">
        <ele>1286.8</ele>
        <time>2014-05-27T10:36:33Z</time>
      </trkpt>
      <trkpt lat="44.61746" lon="2.96837">
        <ele>1290.6</ele>
        <time>2014-05-27T10:37:07Z</time>
      </trkpt>
      <trkpt lat="44.61728" lon="2.96823">
        <ele>1289.3</ele>
        <time>2014-05-27T10:37:26Z</time>
      </trkpt>
      <trkpt lat="44.61726" lon="2.96821">
        <ele>1289.1</ele>
        <time>2014-05-27T10:37:28Z</time>
      </trkpt>
      <trkpt lat="44.61728" lon="2.96823">
        <ele>1289.3</ele>
        <time>2014-05-27T10:37:36Z</time>
      </trkpt>
      <trkpt lat="44.61703" lon="2.96804">
        <ele>1287.9</ele>
        <time>2014-05-27T10:38:19Z</time>
      </trkpt>
      <trkpt lat="44.61687" lon="2.96789">
        <ele>1288.8</ele>
        <time>2014-05-27T10:38:35Z</time>
      </trkpt>
      <trkpt lat="44.61679" lon="2.96785">
        <ele>1287.2</ele>
        <time>2014-05-27T10:38:45Z</time>
      </trkpt>
      <trkpt lat="44.61675" lon="2.96781">
        <ele>1288.1</ele>
        <time>2014-05-27T10:38:53Z</time>
      </trkpt>
      <trkpt lat="44.61654" lon="2.96767">
        <ele>1285.5</ele>
        <time>2014-05-27T10:39:41Z</time>
      </trkpt>
      <trkpt lat="44.61645" lon="2.96755">
        <ele>1285.7</ele>
        <time>2014-05-27T10:39:58Z</time>
      </trkpt>
      <trkpt lat="44.61627" lon="2.96734">
        <ele>1285.1</ele>
        <time>2014-05-27T10:40:13Z</time>
      </trkpt>
      <trkpt lat="44.6161" lon="2.96719">
        <ele>1282.6</ele>
        <time>2014-05-27T10:40:31Z</time>
      </trkpt>
      <trkpt lat="44.61606" lon="2.96704">
        <ele>1284.7</ele>
        <time>2014-05-27T10:40:37Z</time>
      </trkpt>
      <trkpt lat="44.61595" lon="2.96702">
        <ele>1285</ele>
        <time>2014-05-27T10:40:51Z</time>
      </trkpt>
      <trkpt lat="44.61583" lon="2.96687">
        <ele>1285</ele>
        <time>2014-05-27T10:41:04Z</time>
      </trkpt>
      <trkpt lat="44.61571" lon="2.96676">
        <ele>1284</ele>
        <time>2014-05-27T10:41:16Z</time>
      </trkpt>
      <trkpt lat="44.61568" lon="2.96673">
        <ele>1282.2</ele>
        <time>2014-05-27T10:41:21Z</time>
      </trkpt>
      <trkpt lat="44.61557" lon="2.96666">
        <ele>1276.9</ele>
        <time>2014-05-27T10:41:33Z</time>
      </trkpt>
      <trkpt lat="44.61549" lon="2.96662">
        <ele>1277.8</ele>
        <time>2014-05-27T10:41:43Z</time>
      </trkpt>
      <trkpt lat="44.61536" lon="2.96655">
        <ele>1272.8</ele>
        <time>2014-05-27T10:41:57Z</time>
      </trkpt>
      <trkpt lat="44.61527" lon="2.96649">
        <ele>1269.3</ele>
        <time>2014-05-27T10:42:08Z</time>
      </trkpt>
      <trkpt lat="44.61515" lon="2.96642">
        <ele>1268</ele>
        <time>2014-05-27T10:42:21Z</time>
      </trkpt>
      <trkpt lat="44.61506" lon="2.96633">
        <ele>1267.8</ele>
        <time>2014-05-27T10:42:32Z</time>
      </trkpt>
      <trkpt lat="44.61492" lon="2.96623">
        <ele>1268.1</ele>
        <time>2014-05-27T10:42:43Z</time>
      </trkpt>
      <trkpt lat="44.61475" lon="2.96607">
        <ele>1262.7</ele>
        <time>2014-05-27T10:43:00Z</time>
      </trkpt>
      <trkpt lat="44.61468" lon="2.96598">
        <ele>1263.4</ele>
        <time>2014-05-27T10:43:10Z</time>
      </trkpt>
      <trkpt lat="44.6146" lon="2.96584">
        <ele>1265.6</ele>
        <time>2014-05-27T10:43:20Z</time>
      </trkpt>
      <trkpt lat="44.61446" lon="2.96571">
        <ele>1265.3</ele>
        <time>2014-05-27T10:43:32Z</time>
      </trkpt>
      <trkpt lat="44.61443" lon="2.96569">
        <ele>1265.3</ele>
        <time>2014-05-27T10:43:35Z</time>
      </trkpt>
      <trkpt lat="44.61432" lon="2.96555">
        <ele>1257.7</ele>
        <time>2014-05-27T10:43:49Z</time>
      </trkpt>
      <trkpt lat="44.61421" lon="2.96543">
        <ele>1259</ele>
        <time>2014-05-27T10:43:57Z</time>
      </trkpt>
      <trkpt lat="44.61406" lon="2.96531">
        <ele>1256.6</ele>
        <time>2014-05-27T10:44:12Z</time>
      </trkpt>
      <trkpt lat="44.61406" lon="2.96531">
        <ele>1256.6</ele>
        <time>2014-05-27T10:44:19Z</time>
      </trkpt>
      <trkpt lat="44.61406" lon="2.96531">
        <ele>1256.6</ele>
        <time>2014-05-27T10:44:20Z</time>
      </trkpt>
      <trkpt lat="44.61391" lon="2.96531">
        <ele>1260.9</ele>
        <time>2014-05-27T10:44:36Z</time>
      </trkpt>
      <trkpt lat="44.61385" lon="2.96531">
        <ele>1261.7</ele>
        <time>2014-05-27T10:44:41Z</time>
      </trkpt>
      <trkpt lat="44.61375" lon="2.96528">
        <ele>1261.3</ele>
        <time>2014-05-27T10:44:56Z</time>
      </trkpt>
      <trkpt lat="44.61362" lon="2.96524">
        <ele>1263.3</ele>
        <time>2014-05-27T10:45:03Z</time>
      </trkpt>
      <trkpt lat="44.61353" lon="2.96522">
        <ele>1266.1</ele>
        <time>2014-05-27T10:45:07Z</time>
      </trkpt>
      <trkpt lat="44.61346" lon="2.96521">
        <ele>1262.8</ele>
        <time>2014-05-27T10:45:22Z</time>
      </trkpt>
      <trkpt lat="44.61324" lon="2.96515">
        <ele>1260.7</ele>
        <time>2014-05-27T10:45:39Z</time>
      </trkpt>
      <trkpt lat="44.61259" lon="2.9649">
        <ele>1254.4</ele>
        <time>2014-05-27T10:47:02Z</time>
      </trkpt>
      <trkpt lat="44.61254" lon="2.96486">
        <ele>1253.6</ele>
        <time>2014-05-27T10:47:08Z</time>
      </trkpt>
      <trkpt lat="44.61238" lon="2.96484">
        <ele>1251</ele>
        <time>2014-05-27T10:47:21Z</time>
      </trkpt>
      <trkpt lat="44.61231" lon="2.96482">
        <ele>1251.4</ele>
        <time>2014-05-27T10:47:35Z</time>
      </trkpt>
      <trkpt lat="44.61226" lon="2.96479">
        <ele>1250.2</ele>
        <time>2014-05-27T10:47:39Z</time>
      </trkpt>
      <trkpt lat="44.61225" lon="2.96479">
        <ele>1250.2</ele>
        <time>2014-05-27T10:47:48Z</time>
      </trkpt>
      <trkpt lat="44.61207" lon="2.96476">
        <ele>1249.2</ele>
        <time>2014-05-27T10:48:10Z</time>
      </trkpt>
      <trkpt lat="44.61186" lon="2.96467">
        <ele>1247.1</ele>
        <time>2014-05-27T10:48:27Z</time>
      </trkpt>
      <trkpt lat="44.61161" lon="2.9646">
        <ele>1251.9</ele>
        <time>2014-05-27T10:48:52Z</time>
      </trkpt>
      <trkpt lat="44.61157" lon="2.96459">
        <ele>1252.9</ele>
        <time>2014-05-27T10:48:54Z</time>
      </trkpt>
      <trkpt lat="44.61153" lon="2.96458">
        <ele>1253.6</ele>
        <time>2014-05-27T10:49:04Z</time>
      </trkpt>
      <trkpt lat="44.61121" lon="2.96451">
        <ele>1251</ele>
        <time>2014-05-27T10:49:38Z</time>
      </trkpt>
      <trkpt lat="44.61105" lon="2.96445">
        <ele>1255</ele>
        <time>2014-05-27T10:49:48Z</time>
      </trkpt>
      <trkpt lat="44.61079" lon="2.96435">
        <ele>1254.2</ele>
        <time>2014-05-27T10:50:05Z</time>
      </trkpt>
      <trkpt lat="44.61074" lon="2.96433">
        <ele>1254.7</ele>
        <time>2014-05-27T10:50:08Z</time>
      </trkpt>
      <trkpt lat="44.61071" lon="2.96435">
        <ele>1253.5</ele>
        <time>2014-05-27T10:50:14Z</time>
      </trkpt>
      <trkpt lat="44.61057" lon="2.96428">
        <ele>1251.6</ele>
        <time>2014-05-27T10:50:31Z</time>
      </trkpt>
      <trkpt lat="44.61056" lon="2.96427">
        <ele>1251</ele>
        <time>2014-05-27T10:50:33Z</time>
      </trkpt>
      <trkpt lat="44.61041" lon="2.96413">
        <ele>1245.4</ele>
        <time>2014-05-27T10:50:45Z</time>
      </trkpt>
      <trkpt lat="44.61038" lon="2.96395">
        <ele>1248.6</ele>
        <time>2014-05-27T10:51:02Z</time>
      </trkpt>
      <trkpt lat="44.6103" lon="2.96377">
        <ele>1245.7</ele>
        <time>2014-05-27T10:51:13Z</time>
      </trkpt>
      <trkpt lat="44.61024" lon="2.96357">
        <ele>1247.1</ele>
        <time>2014-05-27T10:51:27Z</time>
      </trkpt>
      <trkpt lat="44.61023" lon="2.96338">
        <ele>1248.2</ele>
        <time>2014-05-27T10:51:38Z</time>
      </trkpt>
      <trkpt lat="44.6102" lon="2.9632">
        <ele>1247.2</ele>
        <time>2014-05-27T10:51:49Z</time>
      </trkpt>
      <trkpt lat="44.61017" lon="2.96296">
        <ele>1247.5</ele>
        <time>2014-05-27T10:52:02Z</time>
      </trkpt>
      <trkpt lat="44.61012" lon="2.96274">
        <ele>1247.1</ele>
        <time>2014-05-27T10:52:16Z</time>
      </trkpt>
      <trkpt lat="44.61005" lon="2.96258">
        <ele>1243.4</ele>
        <time>2014-05-27T10:52:30Z</time>
      </trkpt>
      <trkpt lat="44.60996" lon="2.96231">
        <ele>1243.3</ele>
        <time>2014-05-27T10:52:49Z</time>
      </trkpt>
      <trkpt lat="44.60989" lon="2.96205">
        <ele>1242.8</ele>
        <time>2014-05-27T10:53:06Z</time>
      </trkpt>
      <trkpt lat="44.60983" lon="2.96173">
        <ele>1243.5</ele>
        <time>2014-05-27T10:53:25Z</time>
      </trkpt>
      <trkpt lat="44.60979" lon="2.96153">
        <ele>1243.6</ele>
        <time>2014-05-27T10:53:37Z</time>
      </trkpt>
      <trkpt lat="44.60975" lon="2.9614">
        <ele>1243.7</ele>
        <time>2014-05-27T10:53:45Z</time>
      </trkpt>
      <trkpt lat="44.60968" lon="2.96125">
        <ele>1244</ele>
        <time>2014-05-27T10:53:54Z</time>
      </trkpt>
      <trkpt lat="44.60958" lon="2.96109">
        <ele>1244.6</ele>
        <time>2014-05-27T10:54:06Z</time>
      </trkpt>
      <trkpt lat="44.6095" lon="2.961">
        <ele>1244.7</ele>
        <time>2014-05-27T10:54:14Z</time>
      </trkpt>
      <trkpt lat="44.60935" lon="2.96092">
        <ele>1244.5</ele>
        <time>2014-05-27T10:54:28Z</time>
      </trkpt>
      <trkpt lat="44.60925" lon="2.96087">
        <ele>1243.6</ele>
        <time>2014-05-27T10:54:36Z</time>
      </trkpt>
      <trkpt lat="44.60905" lon="2.96086">
        <ele>1242.1</ele>
        <time>2014-05-27T10:54:53Z</time>
      </trkpt>
      <trkpt lat="44.60891" lon="2.96084">
        <ele>1240.9</ele>
        <time>2014-05-27T10:55:05Z</time>
      </trkpt>
      <trkpt lat="44.60875" lon="2.96071">
        <ele>1243.7</ele>
        <time>2014-05-27T10:55:21Z</time>
      </trkpt>
      <trkpt lat="44.6086" lon="2.96054">
        <ele>1245</ele>
        <time>2014-05-27T10:55:38Z</time>
      </trkpt>
      <trkpt lat="44.60851" lon="2.96038">
        <ele>1247</ele>
        <time>2014-05-27T10:55:52Z</time>
      </trkpt>
      <trkpt lat="44.60845" lon="2.96026">
        <ele>1248.4</ele>
        <time>2014-05-27T10:56:04Z</time>
      </trkpt>
      <trkpt lat="44.60841" lon="2.96009">
        <ele>1249.6</ele>
        <time>2014-05-27T10:56:17Z</time>
      </trkpt>
      <trkpt lat="44.60842" lon="2.95986">
        <ele>1250</ele>
        <time>2014-05-27T10:56:35Z</time>
      </trkpt>
      <trkpt lat="44.60844" lon="2.95962">
        <ele>1252</ele>
        <time>2014-05-27T10:56:52Z</time>
      </trkpt>
      <trkpt lat="44.60842" lon="2.95938">
        <ele>1251.4</ele>
        <time>2014-05-27T10:57:08Z</time>
      </trkpt>
      <trkpt lat="44.60837" lon="2.95911">
        <ele>1250.3</ele>
        <time>2014-05-27T10:57:26Z</time>
      </trkpt>
      <trkpt lat="44.60831" lon="2.95895">
        <ele>1251.2</ele>
        <time>2014-05-27T10:57:38Z</time>
      </trkpt>
      <trkpt lat="44.60824" lon="2.95882">
        <ele>1249.3</ele>
        <time>2014-05-27T10:57:50Z</time>
      </trkpt>
      <trkpt lat="44.60817" lon="2.95869">
        <ele>1248.7</ele>
        <time>2014-05-27T10:58:02Z</time>
      </trkpt>
      <trkpt lat="44.60815" lon="2.95866">
        <ele>1247.9</ele>
        <time>2014-05-27T10:58:14Z</time>
      </trkpt>
      <trkpt lat="44.60807" lon="2.95853">
        <ele>1247</ele>
        <time>2014-05-27T10:58:24Z</time>
      </trkpt>
      <trkpt lat="44.60794" lon="2.95836">
        <ele>1246.8</ele>
        <time>2014-05-27T10:58:39Z</time>
      </trkpt>
      <trkpt lat="44.60782" lon="2.95814">
        <ele>1244.3</ele>
        <time>2014-05-27T10:58:57Z</time>
      </trkpt>
      <trkpt lat="44.60777" lon="2.95793">
        <ele>1243.3</ele>
        <time>2014-05-27T10:59:11Z</time>
      </trkpt>
      <trkpt lat="44.60765" lon="2.95763">
        <ele>1240.9</ele>
        <time>2014-05-27T10:59:32Z</time>
      </trkpt>
      <trkpt lat="44.60752" lon="2.95742">
        <ele>1241</ele>
        <time>2014-05-27T10:59:48Z</time>
      </trkpt>
      <trkpt lat="44.60746" lon="2.95733">
        <ele>1240</ele>
        <time>2014-05-27T11:00:00Z</time>
      </trkpt>
      <trkpt lat="44.60746" lon="2.95733">
        <ele>1240</ele>
        <time>2014-05-27T11:00:07Z</time>
      </trkpt>
      <trkpt lat="44.60746" lon="2.95733">
        <ele>1240</ele>
        <time>2014-05-27T11:00:08Z</time>
      </trkpt>
      <trkpt lat="44.60715" lon="2.9573">
        <ele>1236.1</ele>
        <time>2014-05-27T11:02:57Z</time>
      </trkpt>
      <trkpt lat="44.60701" lon="2.95725">
        <ele>1236.8</ele>
        <time>2014-05-27T11:03:08Z</time>
      </trkpt>
      <trkpt lat="44.60687" lon="2.95721">
        <ele>1236.9</ele>
        <time>2014-05-27T11:03:21Z</time>
      </trkpt>
      <trkpt lat="44.6067" lon="2.95716">
        <ele>1235.8</ele>
        <time>2014-05-27T11:03:38Z</time>
      </trkpt>
      <trkpt lat="44.60657" lon="2.95707">
        <ele>1234.2</ele>
        <time>2014-05-27T11:03:52Z</time>
      </trkpt>
      <trkpt lat="44.60657" lon="2.95707">
        <ele>1234.2</ele>
        <time>2014-05-27T11:04:00Z</time>
      </trkpt>
      <trkpt lat="44.60657" lon="2.95707">
        <ele>1234.2</ele>
        <time>2014-05-27T11:04:01Z</time>
      </trkpt>
      <trkpt lat="44.60647" lon="2.957">
        <ele>1232.4</ele>
        <time>2014-05-27T11:04:54Z</time>
      </trkpt>
      <trkpt lat="44.60639" lon="2.95693">
        <ele>1231.5</ele>
        <time>2014-05-27T11:05:02Z</time>
      </trkpt>
      <trkpt lat="44.6062" lon="2.95681">
        <ele>1228.4</ele>
        <time>2014-05-27T11:05:18Z</time>
      </trkpt>
      <trkpt lat="44.60602" lon="2.95669">
        <ele>1224.4</ele>
        <time>2014-05-27T11:05:35Z</time>
      </trkpt>
      <trkpt lat="44.60586" lon="2.95654">
        <ele>1223</ele>
        <time>2014-05-27T11:05:49Z</time>
      </trkpt>
      <trkpt lat="44.6057" lon="2.95638">
        <ele>1221.1</ele>
        <time>2014-05-27T11:06:05Z</time>
      </trkpt>
      <trkpt lat="44.60557" lon="2.95624">
        <ele>1218.4</ele>
        <time>2014-05-27T11:06:20Z</time>
      </trkpt>
      <trkpt lat="44.60548" lon="2.95606">
        <ele>1216.4</ele>
        <time>2014-05-27T11:06:38Z</time>
      </trkpt>
      <trkpt lat="44.60555" lon="2.95569">
        <ele>1212.4</ele>
        <time>2014-05-27T11:07:24Z</time>
      </trkpt>
      <trkpt lat="44.60551" lon="2.95543">
        <ele>1211.1</ele>
        <time>2014-05-27T11:07:41Z</time>
      </trkpt>
      <trkpt lat="44.60543" lon="2.95528">
        <ele>1205.9</ele>
        <time>2014-05-27T11:08:00Z</time>
      </trkpt>
      <trkpt lat="44.60543" lon="2.95528">
        <ele>1155</ele>
        <time>2014-05-27T11:09:01Z</time>
      </trkpt>
      <trkpt lat="44.60543" lon="2.95528">
        <ele>1155</ele>
        <time>2014-05-27T12:00:46Z</time>
      </trkpt>
      <trkpt lat="44.5958" lon="2.93838">
        <ele>913</ele>
        <time>2014-05-27T12:11:09Z</time>
      </trkpt>
      <trkpt lat="44.5958" lon="2.93838">
        <ele>968.5</ele>
        <time>2014-05-27T12:11:11Z</time>
      </trkpt>
      <trkpt lat="44.5958" lon="2.93817">
        <ele>969.2</ele>
        <time>2014-05-27T12:11:27Z</time>
      </trkpt>
      <trkpt lat="44.59588" lon="2.93799">
        <ele>967.8</ele>
        <time>2014-05-27T12:11:36Z</time>
      </trkpt>
      <trkpt lat="44.59589" lon="2.93797">
        <ele>967.6</ele>
        <time>2014-05-27T12:11:38Z</time>
      </trkpt>
      <trkpt lat="44.59589" lon="2.93792">
        <ele>969.5</ele>
        <time>2014-05-27T12:11:47Z</time>
      </trkpt>
      <trkpt lat="44.5958" lon="2.93773">
        <ele>968.4</ele>
        <time>2014-05-27T12:12:20Z</time>
      </trkpt>
      <trkpt lat="44.59574" lon="2.93735">
        <ele>971.3</ele>
        <time>2014-05-27T12:13:03Z</time>
      </trkpt>
      <trkpt lat="44.59556" lon="2.93705">
        <ele>965.7</ele>
        <time>2014-05-27T12:14:10Z</time>
      </trkpt>
      <trkpt lat="44.59542" lon="2.93708">
        <ele>963.4</ele>
        <time>2014-05-27T12:14:22Z</time>
      </trkpt>
      <trkpt lat="44.59538" lon="2.9371">
        <ele>960.5</ele>
        <time>2014-05-27T12:14:25Z</time>
      </trkpt>
      <trkpt lat="44.59542" lon="2.93708">
        <ele>963.4</ele>
        <time>2014-05-27T12:14:33Z</time>
      </trkpt>
      <trkpt lat="44.59537" lon="2.93675">
        <ele>957.3</ele>
        <time>2014-05-27T12:15:27Z</time>
      </trkpt>
      <trkpt lat="44.59531" lon="2.93653">
        <ele>951.9</ele>
        <time>2014-05-27T12:15:36Z</time>
      </trkpt>
      <trkpt lat="44.59519" lon="2.9364">
        <ele>948.4</ele>
        <time>2014-05-27T12:15:44Z</time>
      </trkpt>
      <trkpt lat="44.59517" lon="2.93634">
        <ele>946.8</ele>
        <time>2014-05-27T12:15:53Z</time>
      </trkpt>
      <trkpt lat="44.59513" lon="2.93627">
        <ele>946.4</ele>
        <time>2014-05-27T12:16:08Z</time>
      </trkpt>
      <trkpt lat="44.59505" lon="2.93611">
        <ele>945.7</ele>
        <time>2014-05-27T12:16:12Z</time>
      </trkpt>
      <trkpt lat="44.59497" lon="2.93595">
        <ele>948.2</ele>
        <time>2014-05-27T12:16:21Z</time>
      </trkpt>
      <trkpt lat="44.59494" lon="2.9359">
        <ele>948.8</ele>
        <time>2014-05-27T12:16:27Z</time>
      </trkpt>
      <trkpt lat="44.5949" lon="2.93577">
        <ele>948.4</ele>
        <time>2014-05-27T12:16:40Z</time>
      </trkpt>
      <trkpt lat="44.59482" lon="2.93549">
        <ele>945.5</ele>
        <time>2014-05-27T12:16:48Z</time>
      </trkpt>
      <trkpt lat="44.59477" lon="2.93533">
        <ele>939.2</ele>
        <time>2014-05-27T12:16:57Z</time>
      </trkpt>
      <trkpt lat="44.59462" lon="2.93529">
        <ele>938.6</ele>
        <time>2014-05-27T12:17:06Z</time>
      </trkpt>
      <trkpt lat="44.59449" lon="2.93505">
        <ele>941.2</ele>
        <time>2014-05-27T12:17:21Z</time>
      </trkpt>
      <trkpt lat="44.59446" lon="2.93474">
        <ele>937.8</ele>
        <time>2014-05-27T12:17:38Z</time>
      </trkpt>
      <trkpt lat="44.59448" lon="2.93469">
        <ele>936.6</ele>
        <time>2014-05-27T12:17:42Z</time>
      </trkpt>
      <trkpt lat="44.59451" lon="2.93464">
        <ele>934.2</ele>
        <time>2014-05-27T12:17:51Z</time>
      </trkpt>
      <trkpt lat="44.59433" lon="2.93402">
        <ele>937.1</ele>
        <time>2014-05-27T12:18:46Z</time>
      </trkpt>
      <trkpt lat="44.59428" lon="2.93367">
        <ele>936.1</ele>
        <time>2014-05-27T12:18:53Z</time>
      </trkpt>
      <trkpt lat="44.59426" lon="2.93345">
        <ele>937.8</ele>
        <time>2014-05-27T12:19:02Z</time>
      </trkpt>
      <trkpt lat="44.59424" lon="2.93322">
        <ele>939.7</ele>
        <time>2014-05-27T12:19:11Z</time>
      </trkpt>
      <trkpt lat="44.59422" lon="2.93307">
        <ele>939.4</ele>
        <time>2014-05-27T12:19:19Z</time>
      </trkpt>
      <trkpt lat="44.59417" lon="2.93278">
        <ele>941.9</ele>
        <time>2014-05-27T12:19:32Z</time>
      </trkpt>
      <trkpt lat="44.59412" lon="2.93263">
        <ele>940.9</ele>
        <time>2014-05-27T12:19:41Z</time>
      </trkpt>
      <trkpt lat="44.594" lon="2.93234">
        <ele>943.1</ele>
        <time>2014-05-27T12:19:57Z</time>
      </trkpt>
      <trkpt lat="44.59397" lon="2.93216">
        <ele>942.8</ele>
        <time>2014-05-27T12:20:07Z</time>
      </trkpt>
      <trkpt lat="44.59389" lon="2.93192">
        <ele>941.4</ele>
        <time>2014-05-27T12:20:22Z</time>
      </trkpt>
      <trkpt lat="44.59389" lon="2.93192">
        <ele>941.4</ele>
        <time>2014-05-27T12:20:29Z</time>
      </trkpt>
      <trkpt lat="44.59389" lon="2.93192">
        <ele>941.4</ele>
        <time>2014-05-27T12:20:30Z</time>
      </trkpt>
      <trkpt lat="44.59387" lon="2.93165">
        <ele>940.2</ele>
        <time>2014-05-27T12:20:53Z</time>
      </trkpt>
      <trkpt lat="44.59381" lon="2.93139">
        <ele>935.3</ele>
        <time>2014-05-27T12:21:02Z</time>
      </trkpt>
      <trkpt lat="44.59372" lon="2.93126">
        <ele>936</ele>
        <time>2014-05-27T12:21:08Z</time>
      </trkpt>
      <trkpt lat="44.59366" lon="2.93114">
        <ele>939.1</ele>
        <time>2014-05-27T12:21:15Z</time>
      </trkpt>
      <trkpt lat="44.5936" lon="2.93096">
        <ele>933.9</ele>
        <time>2014-05-27T12:21:31Z</time>
      </trkpt>
      <trkpt lat="44.59352" lon="2.93076">
        <ele>933.1</ele>
        <time>2014-05-27T12:21:40Z</time>
      </trkpt>
      <trkpt lat="44.59343" lon="2.93061">
        <ele>932.5</ele>
        <time>2014-05-27T12:21:50Z</time>
      </trkpt>
      <trkpt lat="44.59338" lon="2.93036">
        <ele>936</ele>
        <time>2014-05-27T12:22:05Z</time>
      </trkpt>
      <trkpt lat="44.59336" lon="2.93028">
        <ele>936.4</ele>
        <time>2014-05-27T12:22:09Z</time>
      </trkpt>
      <trkpt lat="44.59335" lon="2.93026">
        <ele>936.6</ele>
        <time>2014-05-27T12:22:15Z</time>
      </trkpt>
      <trkpt lat="44.5933" lon="2.93007">
        <ele>934.3</ele>
        <time>2014-05-27T12:22:27Z</time>
      </trkpt>
      <trkpt lat="44.59331" lon="2.9299">
        <ele>933.6</ele>
        <time>2014-05-27T12:22:38Z</time>
      </trkpt>
      <trkpt lat="44.59331" lon="2.92957">
        <ele>926.9</ele>
        <time>2014-05-27T12:22:55Z</time>
      </trkpt>
      <trkpt lat="44.59321" lon="2.92928">
        <ele>924.4</ele>
        <time>2014-05-27T12:23:11Z</time>
      </trkpt>
      <trkpt lat="44.59324" lon="2.92908">
        <ele>920.9</ele>
        <time>2014-05-27T12:23:25Z</time>
      </trkpt>
      <trkpt lat="44.59324" lon="2.9288">
        <ele>913.5</ele>
        <time>2014-05-27T12:23:46Z</time>
      </trkpt>
      <trkpt lat="44.5932" lon="2.92853">
        <ele>920.8</ele>
        <time>2014-05-27T12:24:03Z</time>
      </trkpt>
      <trkpt lat="44.59321" lon="2.92838">
        <ele>918.8</ele>
        <time>2014-05-27T12:24:15Z</time>
      </trkpt>
      <trkpt lat="44.59323" lon="2.92812">
        <ele>914</ele>
        <time>2014-05-27T12:24:29Z</time>
      </trkpt>
      <trkpt lat="44.59317" lon="2.92791">
        <ele>913.8</ele>
        <time>2014-05-27T12:24:41Z</time>
      </trkpt>
      <trkpt lat="44.59303" lon="2.92782">
        <ele>911.3</ele>
        <time>2014-05-27T12:24:53Z</time>
      </trkpt>
      <trkpt lat="44.59298" lon="2.92775">
        <ele>909.9</ele>
        <time>2014-05-27T12:24:57Z</time>
      </trkpt>
      <trkpt lat="44.59296" lon="2.92768">
        <ele>907.6</ele>
        <time>2014-05-27T12:25:03Z</time>
      </trkpt>
      <trkpt lat="44.59293" lon="2.92751">
        <ele>907.1</ele>
        <time>2014-05-27T12:25:15Z</time>
      </trkpt>
      <trkpt lat="44.59291" lon="2.92737">
        <ele>906.3</ele>
        <time>2014-05-27T12:25:25Z</time>
      </trkpt>
      <trkpt lat="44.59287" lon="2.92708">
        <ele>905.9</ele>
        <time>2014-05-27T12:25:44Z</time>
      </trkpt>
      <trkpt lat="44.59285" lon="2.92686">
        <ele>900.5</ele>
        <time>2014-05-27T12:25:57Z</time>
      </trkpt>
      <trkpt lat="44.59278" lon="2.92669">
        <ele>900.7</ele>
        <time>2014-05-27T12:26:13Z</time>
      </trkpt>
      <trkpt lat="44.59267" lon="2.92642">
        <ele>906.3</ele>
        <time>2014-05-27T12:26:34Z</time>
      </trkpt>
      <trkpt lat="44.59265" lon="2.92619">
        <ele>904.4</ele>
        <time>2014-05-27T12:26:46Z</time>
      </trkpt>
      <trkpt lat="44.59261" lon="2.9259">
        <ele>900</ele>
        <time>2014-05-27T12:27:02Z</time>
      </trkpt>
      <trkpt lat="44.59257" lon="2.92571">
        <ele>898.4</ele>
        <time>2014-05-27T12:27:14Z</time>
      </trkpt>
      <trkpt lat="44.59256" lon="2.92556">
        <ele>894.5</ele>
        <time>2014-05-27T12:27:26Z</time>
      </trkpt>
      <trkpt lat="44.59253" lon="2.9254">
        <ele>892.2</ele>
        <time>2014-05-27T12:27:36Z</time>
      </trkpt>
      <trkpt lat="44.59253" lon="2.92515">
        <ele>885.6</ele>
        <time>2014-05-27T12:27:52Z</time>
      </trkpt>
      <trkpt lat="44.59238" lon="2.92498">
        <ele>886</ele>
        <time>2014-05-27T12:28:09Z</time>
      </trkpt>
      <trkpt lat="44.5923" lon="2.92478">
        <ele>883.9</ele>
        <time>2014-05-27T12:28:24Z</time>
      </trkpt>
      <trkpt lat="44.5921" lon="2.92462">
        <ele>883.4</ele>
        <time>2014-05-27T12:28:39Z</time>
      </trkpt>
      <trkpt lat="44.59203" lon="2.92454">
        <ele>881.9</ele>
        <time>2014-05-27T12:28:47Z</time>
      </trkpt>
      <trkpt lat="44.5919" lon="2.92442">
        <ele>882.4</ele>
        <time>2014-05-27T12:29:02Z</time>
      </trkpt>
      <trkpt lat="44.59175" lon="2.92425">
        <ele>879.4</ele>
        <time>2014-05-27T12:29:20Z</time>
      </trkpt>
      <trkpt lat="44.59167" lon="2.92416">
        <ele>879.6</ele>
        <time>2014-05-27T12:29:31Z</time>
      </trkpt>
      <trkpt lat="44.5915" lon="2.92398">
        <ele>877.4</ele>
        <time>2014-05-27T12:29:48Z</time>
      </trkpt>
      <trkpt lat="44.59138" lon="2.92388">
        <ele>873.8</ele>
        <time>2014-05-27T12:30:05Z</time>
      </trkpt>
      <trkpt lat="44.59128" lon="2.9238">
        <ele>873.6</ele>
        <time>2014-05-27T12:30:18Z</time>
      </trkpt>
      <trkpt lat="44.59117" lon="2.92365">
        <ele>875.6</ele>
        <time>2014-05-27T12:30:28Z</time>
      </trkpt>
      <trkpt lat="44.59119" lon="2.92341">
        <ele>873.5</ele>
        <time>2014-05-27T12:30:48Z</time>
      </trkpt>
      <trkpt lat="44.59119" lon="2.92341">
        <ele>873.5</ele>
        <time>2014-05-27T12:33:08Z</time>
      </trkpt>
      <trkpt lat="44.59115" lon="2.92311">
        <ele>873.1</ele>
        <time>2014-05-27T12:33:16Z</time>
      </trkpt>
      <trkpt lat="44.59115" lon="2.9229">
        <ele>872.4</ele>
        <time>2014-05-27T12:33:33Z</time>
      </trkpt>
      <trkpt lat="44.59118" lon="2.9227">
        <ele>875.8</ele>
        <time>2014-05-27T12:33:50Z</time>
      </trkpt>
      <trkpt lat="44.5912" lon="2.92242">
        <ele>875.1</ele>
        <time>2014-05-27T12:34:07Z</time>
      </trkpt>
      <trkpt lat="44.5911" lon="2.9223">
        <ele>873.7</ele>
        <time>2014-05-27T12:34:21Z</time>
      </trkpt>
      <trkpt lat="44.59112" lon="2.92217">
        <ele>875.1</ele>
        <time>2014-05-27T12:34:28Z</time>
      </trkpt>
      <trkpt lat="44.59097" lon="2.92168">
        <ele>871.2</ele>
        <time>2014-05-27T12:35:10Z</time>
      </trkpt>
      <trkpt lat="44.59096" lon="2.92153">
        <ele>869.3</ele>
        <time>2014-05-27T12:35:27Z</time>
      </trkpt>
      <trkpt lat="44.5909" lon="2.92114">
        <ele>869.8</ele>
        <time>2014-05-27T12:36:03Z</time>
      </trkpt>
      <trkpt lat="44.59092" lon="2.92084">
        <ele>869.4</ele>
        <time>2014-05-27T12:36:27Z</time>
      </trkpt>
      <trkpt lat="44.59083" lon="2.92071">
        <ele>871.5</ele>
        <time>2014-05-27T12:36:44Z</time>
      </trkpt>
      <trkpt lat="44.59087" lon="2.92048">
        <ele>872.8</ele>
        <time>2014-05-27T12:37:01Z</time>
      </trkpt>
      <trkpt lat="44.59072" lon="2.92041">
        <ele>875.4</ele>
        <time>2014-05-27T12:37:16Z</time>
      </trkpt>
      <trkpt lat="44.59072" lon="2.92041">
        <ele>875.4</ele>
        <time>2014-05-27T12:37:24Z</time>
      </trkpt>
      <trkpt lat="44.59072" lon="2.92041">
        <ele>875.4</ele>
        <time>2014-05-27T12:37:25Z</time>
      </trkpt>
      <trkpt lat="44.59072" lon="2.92041">
        <ele>821</ele>
        <time>2014-05-27T12:38:15Z</time>
      </trkpt>
      <trkpt lat="44.59072" lon="2.92041">
        <ele>821</ele>
        <time>2014-05-27T12:38:17Z</time>
      </trkpt>
    </trkseg>
  </trk>
</gpx>